<?xml version="1.0" encoding="UTF-8" standalone="no" ?>
<gpx xmlns="http://www.topografix.com/GPX/1/1" xmlns:xsi="http://www.w3.org/2001/XMLSchema-instance" xsi:schemaLocation="http://www.topografix.com/GPX/1/1 http://www.topografix.com/GPX/1/1/gpx.xsd" version="1.1" creator="VisuGPX - https://www.visugpx.com">
  <metadata>
    <name>Gavaudun 46 km</name>
  </metadata>
  <trk>
    <name><![CDATA[Gavaudun 46 km_2]]></name>
    <trkseg>
      <trkpt lat="44.60392" lon="0.80418">
        <ele>164.2</ele>
        <extensions>
          <visugpx:TrkExtension xmlns:visugpx="https://www.visugpx.com/editgpx/">
            <visugpx:node>2</visugpx:node>
            </visugpx:TrkExtension>
        </extensions>
      </trkpt>
      <trkpt lat="44.6042" lon="0.80422">
        <ele>165.9</ele>
      </trkpt>
      <trkpt lat="44.60451" lon="0.8046">
        <ele>170.7</ele>
      </trkpt>
      <trkpt lat="44.60457" lon="0.80463">
        <ele>170.8</ele>
      </trkpt>
      <trkpt lat="44.60465" lon="0.80443">
        <ele>170.7</ele>
      </trkpt>
      <trkpt lat="44.60476" lon="0.80408">
        <ele>169.9</ele>
      </trkpt>
      <trkpt lat="44.60489" lon="0.80375">
        <ele>169.5</ele>
        <extensions>
          <visugpx:TrkExtension xmlns:visugpx="https://www.visugpx.com/editgpx/">
            <visugpx:node>1</visugpx:node>
            </visugpx:TrkExtension>
        </extensions>
      </trkpt>
      <trkpt lat="44.60392" lon="0.80418">
        <ele>164.2</ele>
        <extensions>
          <visugpx:TrkExtension xmlns:visugpx="https://www.visugpx.com/editgpx/">
            <visugpx:node>2</visugpx:node>
            </visugpx:TrkExtension>
        </extensions>
      </trkpt>
      <trkpt lat="44.60214" lon="0.80439">
        <ele>156.2</ele>
      </trkpt>
      <trkpt lat="44.60061" lon="0.80469">
        <ele>155.7</ele>
      </trkpt>
      <trkpt lat="44.60032" lon="0.80464">
        <ele>156</ele>
      </trkpt>
      <trkpt lat="44.59995" lon="0.80445">
        <ele>155.4</ele>
      </trkpt>
      <trkpt lat="44.59977" lon="0.80441">
        <ele>156.6</ele>
      </trkpt>
      <trkpt lat="44.59959" lon="0.80456">
        <ele>157</ele>
      </trkpt>
      <trkpt lat="44.59884" lon="0.80586">
        <ele>150.4</ele>
      </trkpt>
      <trkpt lat="44.59793" lon="0.80719">
        <ele>141.1</ele>
        <extensions>
          <visugpx:TrkExtension xmlns:visugpx="https://www.visugpx.com/editgpx/">
            <visugpx:node>3</visugpx:node>
            </visugpx:TrkExtension>
        </extensions>
      </trkpt>
      <trkpt lat="44.59782" lon="0.80735">
        <ele>140.5</ele>
      </trkpt>
      <trkpt lat="44.5977" lon="0.80745">
        <ele>139.8</ele>
      </trkpt>
      <trkpt lat="44.59774" lon="0.80763">
        <ele>139</ele>
      </trkpt>
      <trkpt lat="44.59743" lon="0.80882">
        <ele>134</ele>
      </trkpt>
      <trkpt lat="44.59735" lon="0.80943">
        <ele>133.4</ele>
      </trkpt>
      <trkpt lat="44.59723" lon="0.80972">
        <ele>134</ele>
      </trkpt>
      <trkpt lat="44.59707" lon="0.81044">
        <ele>134.2</ele>
      </trkpt>
      <trkpt lat="44.59691" lon="0.81091">
        <ele>135.4</ele>
      </trkpt>
      <trkpt lat="44.59676" lon="0.8113">
        <ele>135.1</ele>
      </trkpt>
      <trkpt lat="44.59665" lon="0.81147">
        <ele>134.4</ele>
      </trkpt>
      <trkpt lat="44.59654" lon="0.81168">
        <ele>133.4</ele>
      </trkpt>
      <trkpt lat="44.59594" lon="0.81282">
        <ele>129.9</ele>
      </trkpt>
      <trkpt lat="44.59582" lon="0.81319">
        <ele>126.3</ele>
      </trkpt>
      <trkpt lat="44.59583" lon="0.8137">
        <ele>119</ele>
      </trkpt>
      <trkpt lat="44.59571" lon="0.81428">
        <ele>113.8</ele>
      </trkpt>
      <trkpt lat="44.59541" lon="0.81535">
        <ele>111.1</ele>
        <extensions>
          <visugpx:TrkExtension xmlns:visugpx="https://www.visugpx.com/editgpx/">
            <visugpx:node>4</visugpx:node>
            </visugpx:TrkExtension>
        </extensions>
      </trkpt>
      <trkpt lat="44.59523" lon="0.8161">
        <ele>105.1</ele>
      </trkpt>
      <trkpt lat="44.59516" lon="0.8165">
        <ele>103.8</ele>
      </trkpt>
      <trkpt lat="44.59517" lon="0.8165">
        <ele>101.94666528907</ele>
        <time>2021-10-01T09:01:36.005Z</time>
        <extensions>
          <visugpx:TrkExtension xmlns:visugpx="https://www.visugpx.com/editgpx/">
            <visugpx:node>5</visugpx:node>
            </visugpx:TrkExtension>
        </extensions>
      </trkpt>
      <trkpt lat="44.59449" lon="0.81562">
        <ele>101.7512342284</ele>
        <time>2021-10-01T09:01:33.879Z</time>
      </trkpt>
      <trkpt lat="44.59422" lon="0.81535">
        <ele>101.54795537192</ele>
        <time>2021-10-01T09:01:31.772Z</time>
      </trkpt>
      <trkpt lat="44.59404" lon="0.8152">
        <ele>101.35526354003</ele>
        <time>2021-10-01T09:01:29.671Z</time>
      </trkpt>
      <trkpt lat="44.59383" lon="0.81509">
        <ele>101.14348125033</ele>
        <time>2021-10-01T09:01:27.575Z</time>
      </trkpt>
      <trkpt lat="44.59356" lon="0.81502">
        <ele>100.91194753606</ele>
        <time>2021-10-01T09:01:25.483Z</time>
      </trkpt>
      <trkpt lat="44.59262" lon="0.81489">
        <ele>100.7603993169</ele>
        <time>2021-10-01T09:01:23.397Z</time>
      </trkpt>
      <trkpt lat="44.59231" lon="0.81482">
        <ele>100.69135379199</ele>
        <time>2021-10-01T09:01:21.330Z</time>
      </trkpt>
      <trkpt lat="44.59209" lon="0.8147">
        <ele>100.56503270285</ele>
        <time>2021-10-01T09:01:19.269Z</time>
      </trkpt>
      <trkpt lat="44.59192" lon="0.81454">
        <ele>100.41473760912</ele>
        <time>2021-10-01T09:01:17.212Z</time>
      </trkpt>
      <trkpt lat="44.59157" lon="0.81409">
        <ele>100.2255705033</ele>
        <time>2021-10-01T09:01:15.160Z</time>
      </trkpt>
      <trkpt lat="44.59137" lon="0.81386">
        <ele>100.12995260044</ele>
        <time>2021-10-01T09:01:13.117Z</time>
      </trkpt>
      <trkpt lat="44.5911" lon="0.81365">
        <ele>100.00460977418</ele>
        <time>2021-10-01T09:01:11.079Z</time>
      </trkpt>
      <trkpt lat="44.59098" lon="0.81359">
        <ele>99.86344353583</ele>
        <time>2021-10-01T09:01:07.018Z</time>
      </trkpt>
      <trkpt lat="44.59037" lon="0.8133">
        <ele>99.90759546122</ele>
        <time>2021-10-01T09:01:04.989Z</time>
      </trkpt>
      <trkpt lat="44.59002" lon="0.81313">
        <ele>99.91733587331</ele>
        <time>2021-10-01T09:01:02.973Z</time>
      </trkpt>
      <trkpt lat="44.58974" lon="0.81306">
        <ele>99.88587327268</ele>
        <time>2021-10-01T09:01:00.964Z</time>
      </trkpt>
      <trkpt lat="44.58955" lon="0.81303">
        <ele>99.76959588133</ele>
        <time>2021-10-01T09:00:58.961Z</time>
      </trkpt>
      <trkpt lat="44.58933" lon="0.81303">
        <ele>99.62136012893</ele>
        <time>2021-10-01T09:00:56.962Z</time>
      </trkpt>
      <trkpt lat="44.58906" lon="0.81311">
        <ele>99.51742193015</ele>
        <time>2021-10-01T09:00:54.967Z</time>
      </trkpt>
      <trkpt lat="44.58881" lon="0.81325">
        <ele>99.45211904503</ele>
        <time>2021-10-01T09:00:52.978Z</time>
      </trkpt>
      <trkpt lat="44.58854" lon="0.81344">
        <ele>99.37398627489</ele>
        <time>2021-10-01T09:00:50.994Z</time>
      </trkpt>
      <trkpt lat="44.58832" lon="0.81352">
        <ele>99.28235933909</ele>
        <time>2021-10-01T09:00:49.016Z</time>
      </trkpt>
      <trkpt lat="44.5881" lon="0.81354">
        <ele>99.24669880631</ele>
        <time>2021-10-01T09:00:47.043Z</time>
      </trkpt>
      <trkpt lat="44.58788" lon="0.81351">
        <ele>99.12006945409</ele>
        <time>2021-10-01T09:00:45.074Z</time>
      </trkpt>
      <trkpt lat="44.58773" lon="0.81344">
        <ele>99.00989324067</ele>
        <time>2021-10-01T09:00:43.110Z</time>
      </trkpt>
      <trkpt lat="44.58763" lon="0.81335">
        <ele>98.90431626425</ele>
        <time>2021-10-01T09:00:41.149Z</time>
      </trkpt>
      <trkpt lat="44.58753" lon="0.81322">
        <ele>98.75192520834</ele>
        <time>2021-10-01T09:00:37.234Z</time>
      </trkpt>
      <trkpt lat="44.58744" lon="0.8131">
        <ele>98.72097763983</ele>
        <time>2021-10-01T09:00:35.278Z</time>
      </trkpt>
      <trkpt lat="44.58726" lon="0.81275">
        <ele>98.70890081079</ele>
        <time>2021-10-01T09:00:33.324Z</time>
      </trkpt>
      <trkpt lat="44.58695" lon="0.81219">
        <ele>98.6929778032</ele>
        <time>2021-10-01T09:00:31.376Z</time>
      </trkpt>
      <trkpt lat="44.58659" lon="0.81158">
        <ele>98.92603434729</ele>
        <time>2021-10-01T09:00:27.513Z</time>
      </trkpt>
      <trkpt lat="44.5863" lon="0.81118">
        <ele>99.17434069585</ele>
        <time>2021-10-01T09:00:25.587Z</time>
      </trkpt>
      <trkpt lat="44.58595" lon="0.81077">
        <ele>100.30589433271</ele>
        <time>2021-10-01T09:00:19.851Z</time>
      </trkpt>
      <trkpt lat="44.58601" lon="0.81059">
        <ele>100.81765531132</ele>
        <time>2021-10-01T09:00:17.942Z</time>
      </trkpt>
      <trkpt lat="44.58604" lon="0.8099">
        <ele>101.40748988038</ele>
        <time>2021-10-01T09:00:16.036Z</time>
      </trkpt>
      <trkpt lat="44.58613" lon="0.8093">
        <ele>102.9064590444</ele>
        <time>2021-10-01T09:00:12.253Z</time>
      </trkpt>
      <trkpt lat="44.58629" lon="0.80832">
        <ele>103.84672404767</ele>
        <time>2021-10-01T09:00:10.366Z</time>
      </trkpt>
      <trkpt lat="44.58638" lon="0.80768">
        <ele>104.88328224288</ele>
        <time>2021-10-01T09:00:08.493Z</time>
      </trkpt>
      <trkpt lat="44.58649" lon="0.80734">
        <ele>105.90305991489</ele>
        <time>2021-10-01T09:00:06.629Z</time>
      </trkpt>
      <trkpt lat="44.5867" lon="0.80694">
        <ele>107.17640995623</ele>
        <time>2021-10-01T09:00:04.771Z</time>
      </trkpt>
      <trkpt lat="44.58679" lon="0.80658">
        <ele>108.47233730647</ele>
        <time>2021-10-01T09:00:02.920Z</time>
      </trkpt>
      <trkpt lat="44.58694" lon="0.80631">
        <ele>109.72355706179</ele>
        <time>2021-10-01T09:00:01.074Z</time>
      </trkpt>
      <trkpt lat="44.58725" lon="0.80586">
        <ele>110.87190925008</ele>
        <time>2021-10-01T08:59:59.233Z</time>
      </trkpt>
      <trkpt lat="44.58745" lon="0.8056">
        <ele>112.08296971858</ele>
        <time>2021-10-01T08:59:57.401Z</time>
      </trkpt>
      <trkpt lat="44.58771" lon="0.80516">
        <ele>113.49281661835</ele>
        <time>2021-10-01T08:59:55.575Z</time>
      </trkpt>
      <trkpt lat="44.58799" lon="0.80475">
        <ele>115.12245588409</ele>
        <time>2021-10-01T08:59:53.757Z</time>
      </trkpt>
      <trkpt lat="44.58808" lon="0.80449">
        <ele>116.75466051582</ele>
        <time>2021-10-01T08:59:51.947Z</time>
      </trkpt>
      <trkpt lat="44.5881" lon="0.80401">
        <ele>118.43533291231</ele>
        <time>2021-10-01T08:59:50.141Z</time>
      </trkpt>
      <trkpt lat="44.58818" lon="0.8036">
        <ele>120.24068190486</ele>
        <time>2021-10-01T08:59:48.342Z</time>
      </trkpt>
      <trkpt lat="44.58831" lon="0.80316">
        <ele>121.94396487985</ele>
        <time>2021-10-01T08:59:46.549Z</time>
      </trkpt>
      <trkpt lat="44.58857" lon="0.80242">
        <ele>123.57101281483</ele>
        <time>2021-10-01T08:59:44.763Z</time>
      </trkpt>
      <trkpt lat="44.58875" lon="0.80176">
        <ele>125.36034832967</ele>
        <time>2021-10-01T08:59:42.988Z</time>
      </trkpt>
      <trkpt lat="44.58885" lon="0.80135">
        <ele>127.15487342646</ele>
        <time>2021-10-01T08:59:41.224Z</time>
      </trkpt>
      <trkpt lat="44.58884" lon="0.80055">
        <ele>128.94292771949</ele>
        <time>2021-10-01T08:59:39.466Z</time>
      </trkpt>
      <trkpt lat="44.58889" lon="0.80005">
        <ele>130.75656868859</ele>
        <time>2021-10-01T08:59:37.719Z</time>
      </trkpt>
      <trkpt lat="44.5889" lon="0.8">
        <ele>134.23312410672</ele>
        <time>2021-10-01T08:59:34.240Z</time>
      </trkpt>
      <trkpt lat="44.58921" lon="0.79907">
        <ele>135.98748047983</ele>
        <time>2021-10-01T08:59:32.501Z</time>
      </trkpt>
      <trkpt lat="44.58949" lon="0.79776">
        <ele>138.04846835923</ele>
        <time>2021-10-01T08:59:30.777Z</time>
      </trkpt>
      <trkpt lat="44.58962" lon="0.79705">
        <ele>140.02967213413</ele>
        <time>2021-10-01T08:59:29.072Z</time>
      </trkpt>
      <trkpt lat="44.58979" lon="0.79659">
        <ele>141.67761832784</ele>
        <time>2021-10-01T08:59:27.378Z</time>
      </trkpt>
      <trkpt lat="44.58999" lon="0.79628">
        <ele>143.19933682632</ele>
        <time>2021-10-01T08:59:25.691Z</time>
      </trkpt>
      <trkpt lat="44.59026" lon="0.7959">
        <ele>144.61488698206</ele>
        <time>2021-10-01T08:59:24.010Z</time>
      </trkpt>
      <trkpt lat="44.59065" lon="0.79501">
        <ele>146.02062028628</ele>
        <time>2021-10-01T08:59:22.337Z</time>
      </trkpt>
      <trkpt lat="44.59093" lon="0.79443">
        <ele>147.28911416026</ele>
        <time>2021-10-01T08:59:20.679Z</time>
      </trkpt>
      <trkpt lat="44.59111" lon="0.79414">
        <ele>148.4327909424</ele>
        <time>2021-10-01T08:59:19.031Z</time>
      </trkpt>
      <trkpt lat="44.5912" lon="0.79394">
        <ele>150.31355638428</ele>
        <time>2021-10-01T08:59:15.749Z</time>
      </trkpt>
      <trkpt lat="44.59125" lon="0.79383">
        <ele>151.07232756517</ele>
        <time>2021-10-01T08:59:14.110Z</time>
      </trkpt>
      <trkpt lat="44.59135" lon="0.79338">
        <ele>151.73622586986</ele>
        <time>2021-10-01T08:59:12.472Z</time>
      </trkpt>
      <trkpt lat="44.59148" lon="0.79294">
        <ele>152.27599518272</ele>
        <time>2021-10-01T08:59:10.841Z</time>
      </trkpt>
      <trkpt lat="44.59157" lon="0.79256">
        <ele>152.64778152903</ele>
        <time>2021-10-01T08:59:09.217Z</time>
      </trkpt>
      <trkpt lat="44.59166" lon="0.79168">
        <ele>153.09771759787</ele>
        <time>2021-10-01T08:59:07.599Z</time>
      </trkpt>
      <trkpt lat="44.59168" lon="0.7912">
        <ele>153.39471831659</ele>
        <time>2021-10-01T08:59:05.993Z</time>
      </trkpt>
      <trkpt lat="44.59167" lon="0.79062">
        <ele>153.55739924026</ele>
        <time>2021-10-01T08:59:04.394Z</time>
      </trkpt>
      <trkpt lat="44.59159" lon="0.78973">
        <ele>153.82868009035</ele>
        <time>2021-10-01T08:59:02.804Z</time>
      </trkpt>
      <trkpt lat="44.59152" lon="0.78942">
        <ele>153.77549158924</ele>
        <time>2021-10-01T08:58:59.653Z</time>
      </trkpt>
      <trkpt lat="44.59136" lon="0.7893">
        <ele>153.67233372993</ele>
        <time>2021-10-01T08:58:58.080Z</time>
      </trkpt>
      <trkpt lat="44.59148" lon="0.78923">
        <ele>153.52279688417</ele>
        <time>2021-10-01T08:58:56.511Z</time>
      </trkpt>
      <trkpt lat="44.59179" lon="0.78896">
        <ele>153.34540110594</ele>
        <time>2021-10-01T08:58:54.944Z</time>
      </trkpt>
      <trkpt lat="44.59204" lon="0.78864">
        <ele>153.12090742332</ele>
        <time>2021-10-01T08:58:53.385Z</time>
      </trkpt>
      <trkpt lat="44.59224" lon="0.7883">
        <ele>152.93982161273</ele>
        <time>2021-10-01T08:58:51.832Z</time>
      </trkpt>
      <trkpt lat="44.59242" lon="0.78787">
        <ele>152.8531348771</ele>
        <time>2021-10-01T08:58:50.286Z</time>
      </trkpt>
      <trkpt lat="44.59259" lon="0.78737">
        <ele>152.67847528224</ele>
        <time>2021-10-01T08:58:48.747Z</time>
      </trkpt>
      <trkpt lat="44.59285" lon="0.7861">
        <ele>152.6014104845</ele>
        <time>2021-10-01T08:58:47.216Z</time>
      </trkpt>
      <trkpt lat="44.59302" lon="0.78565">
        <ele>152.81825929867</ele>
        <time>2021-10-01T08:58:44.199Z</time>
      </trkpt>
      <trkpt lat="44.59306" lon="0.78557">
        <ele>153.07454704926</ele>
        <time>2021-10-01T08:58:42.694Z</time>
      </trkpt>
      <trkpt lat="44.59325" lon="0.78514">
        <ele>154.05097243305</ele>
        <time>2021-10-01T08:58:39.694Z</time>
      </trkpt>
      <trkpt lat="44.59409" lon="0.78381">
        <ele>154.44832603852</ele>
        <time>2021-10-01T08:58:38.198Z</time>
      </trkpt>
      <trkpt lat="44.59529" lon="0.7822">
        <ele>155.19830066816</ele>
        <time>2021-10-01T08:58:36.727Z</time>
      </trkpt>
      <trkpt lat="44.5953" lon="0.78207">
        <ele>156.12534443136</ele>
        <time>2021-10-01T08:58:35.289Z</time>
      </trkpt>
      <trkpt lat="44.59536" lon="0.78192">
        <ele>157.18020288584</ele>
        <time>2021-10-01T08:58:33.853Z</time>
      </trkpt>
      <trkpt lat="44.5958" lon="0.78116">
        <ele>158.71683758686</ele>
        <time>2021-10-01T08:58:32.419Z</time>
      </trkpt>
      <trkpt lat="44.59609" lon="0.78076">
        <ele>161.46579904948</ele>
        <time>2021-10-01T08:58:29.588Z</time>
      </trkpt>
      <trkpt lat="44.59617" lon="0.78066">
        <ele>163.00334820303</ele>
        <time>2021-10-01T08:58:28.177Z</time>
      </trkpt>
      <trkpt lat="44.59631" lon="0.78033">
        <ele>164.7959421435</ele>
        <time>2021-10-01T08:58:26.768Z</time>
      </trkpt>
      <trkpt lat="44.59701" lon="0.77924">
        <ele>167.24202200727</ele>
        <time>2021-10-01T08:58:25.364Z</time>
      </trkpt>
      <trkpt lat="44.59718" lon="0.77896">
        <ele>169.14753158589</ele>
        <time>2021-10-01T08:58:23.981Z</time>
      </trkpt>
      <trkpt lat="44.59727" lon="0.77867">
        <ele>170.98828690459</ele>
        <time>2021-10-01T08:58:22.603Z</time>
      </trkpt>
      <trkpt lat="44.59739" lon="0.77838">
        <ele>172.78601408579</ele>
        <time>2021-10-01T08:58:21.230Z</time>
      </trkpt>
      <trkpt lat="44.59749" lon="0.77819">
        <ele>174.59217655352</ele>
        <time>2021-10-01T08:58:19.862Z</time>
      </trkpt>
      <trkpt lat="44.59762" lon="0.77786">
        <ele>176.41871246239</ele>
        <time>2021-10-01T08:58:18.497Z</time>
      </trkpt>
      <trkpt lat="44.59796" lon="0.77711">
        <ele>178.5548744644</ele>
        <time>2021-10-01T08:58:17.137Z</time>
      </trkpt>
      <trkpt lat="44.59813" lon="0.77664">
        <ele>180.50840069699</ele>
        <time>2021-10-01T08:58:15.790Z</time>
      </trkpt>
      <trkpt lat="44.59818" lon="0.77647">
        <ele>183.75955512313</ele>
        <time>2021-10-01T08:58:13.114Z</time>
      </trkpt>
      <trkpt lat="44.59823" lon="0.77631">
        <ele>185.25600654401</ele>
        <time>2021-10-01T08:58:11.777Z</time>
      </trkpt>
      <trkpt lat="44.59832" lon="0.77585">
        <ele>186.65076962793</ele>
        <time>2021-10-01T08:58:10.443Z</time>
      </trkpt>
      <trkpt lat="44.59834" lon="0.7755">
        <ele>187.77859016415</ele>
        <time>2021-10-01T08:58:09.116Z</time>
      </trkpt>
      <trkpt lat="44.59831" lon="0.77515">
        <ele>188.79399398317</ele>
        <time>2021-10-01T08:58:07.794Z</time>
      </trkpt>
      <trkpt lat="44.59832" lon="0.7749">
        <ele>189.70152236568</ele>
        <time>2021-10-01T08:58:06.477Z</time>
      </trkpt>
      <trkpt lat="44.59839" lon="0.77444">
        <ele>190.45029348604</ele>
        <time>2021-10-01T08:58:05.163Z</time>
      </trkpt>
      <trkpt lat="44.59845" lon="0.77417">
        <ele>191.10578249439</ele>
        <time>2021-10-01T08:58:03.856Z</time>
      </trkpt>
      <trkpt lat="44.59878" lon="0.7733">
        <ele>191.86772521061</ele>
        <time>2021-10-01T08:58:02.553Z</time>
      </trkpt>
      <trkpt lat="44.59887" lon="0.77286">
        <ele>192.19561878097</ele>
        <time>2021-10-01T08:58:01.264Z</time>
      </trkpt>
      <trkpt lat="44.5989" lon="0.7724">
        <ele>192.18664690632</ele>
        <time>2021-10-01T08:57:59.982Z</time>
      </trkpt>
      <trkpt lat="44.59891" lon="0.77189">
        <ele>192.04003877399</ele>
        <time>2021-10-01T08:57:58.706Z</time>
      </trkpt>
      <trkpt lat="44.59896" lon="0.77144">
        <ele>191.8448716637</ele>
        <time>2021-10-01T08:57:57.438Z</time>
      </trkpt>
      <trkpt lat="44.59898" lon="0.77126">
        <ele>191.56278752373</ele>
        <time>2021-10-01T08:57:56.176Z</time>
      </trkpt>
      <trkpt lat="44.5991" lon="0.77101">
        <ele>191.20547577648</ele>
        <time>2021-10-01T08:57:54.917Z</time>
      </trkpt>
      <trkpt lat="44.59986" lon="0.77044">
        <ele>190.55917951192</ele>
        <time>2021-10-01T08:57:53.662Z</time>
      </trkpt>
      <trkpt lat="44.59989" lon="0.77037">
        <ele>189.82637101684</ele>
        <time>2021-10-01T08:57:52.424Z</time>
      </trkpt>
      <trkpt lat="44.59995" lon="0.7702">
        <ele>188.94412815105</ele>
        <time>2021-10-01T08:57:51.187Z</time>
      </trkpt>
      <trkpt lat="44.60008" lon="0.76973">
        <ele>187.84009807724</ele>
        <time>2021-10-01T08:57:49.953Z</time>
      </trkpt>
      <trkpt lat="44.60018" lon="0.76944">
        <ele>186.54164842298</ele>
        <time>2021-10-01T08:57:48.726Z</time>
      </trkpt>
      <trkpt lat="44.60033" lon="0.76915">
        <ele>185.13330607959</ele>
        <time>2021-10-01T08:57:47.504Z</time>
      </trkpt>
      <trkpt lat="44.60045" lon="0.76899">
        <ele>183.67236006008</ele>
        <time>2021-10-01T08:57:46.287Z</time>
      </trkpt>
      <trkpt lat="44.60066" lon="0.76895">
        <ele>182.19720518314</ele>
        <time>2021-10-01T08:57:45.073Z</time>
      </trkpt>
      <trkpt lat="44.60078" lon="0.76899">
        <ele>179.25478548004</ele>
        <time>2021-10-01T08:57:42.657Z</time>
      </trkpt>
      <trkpt lat="44.60089" lon="0.76902">
        <ele>177.7036777247</ele>
        <time>2021-10-01T08:57:41.450Z</time>
      </trkpt>
      <trkpt lat="44.6012" lon="0.76908">
        <ele>176.04823111099</ele>
        <time>2021-10-01T08:57:40.245Z</time>
      </trkpt>
      <trkpt lat="44.60152" lon="0.76904">
        <ele>174.24819514226</ele>
        <time>2021-10-01T08:57:39.047Z</time>
      </trkpt>
      <trkpt lat="44.60241" lon="0.76919">
        <ele>172.36759131508</ele>
        <time>2021-10-01T08:57:37.855Z</time>
      </trkpt>
      <trkpt lat="44.603" lon="0.7691">
        <ele>170.44106921398</ele>
        <time>2021-10-01T08:57:36.681Z</time>
      </trkpt>
      <trkpt lat="44.60358" lon="0.76883">
        <ele>167.02085181445</ele>
        <time>2021-10-01T08:57:34.369Z</time>
      </trkpt>
      <trkpt lat="44.60361" lon="0.76882">
        <ele>165.38779112928</ele>
        <time>2021-10-01T08:57:33.219Z</time>
      </trkpt>
      <trkpt lat="44.60413" lon="0.76825">
        <ele>163.49731199567</ele>
        <time>2021-10-01T08:57:32.070Z</time>
      </trkpt>
      <trkpt lat="44.60501" lon="0.76706">
        <ele>152.89107830004</ele>
        <time>2021-10-01T08:57:27.598Z</time>
      </trkpt>
      <trkpt lat="44.60419" lon="0.7663">
        <ele>151.09332204042</ele>
        <time>2021-10-01T08:57:26.486Z</time>
      </trkpt>
      <trkpt lat="44.60269" lon="0.7652">
        <ele>149.65957714429</ele>
        <time>2021-10-01T08:57:25.394Z</time>
      </trkpt>
      <trkpt lat="44.60208" lon="0.76478">
        <ele>147.03504229372</ele>
        <time>2021-10-01T08:57:23.291Z</time>
      </trkpt>
      <trkpt lat="44.6019" lon="0.76465">
        <ele>145.84011395277</ele>
        <time>2021-10-01T08:57:22.246Z</time>
      </trkpt>
      <trkpt lat="44.60074" lon="0.76376">
        <ele>144.55670581828</ele>
        <time>2021-10-01T08:57:21.205Z</time>
      </trkpt>
      <trkpt lat="44.60059" lon="0.76362">
        <ele>143.42677452669</ele>
        <time>2021-10-01T08:57:20.191Z</time>
      </trkpt>
      <trkpt lat="44.60032" lon="0.76307">
        <ele>142.23041535245</ele>
        <time>2021-10-01T08:57:19.181Z</time>
      </trkpt>
      <trkpt lat="44.59987" lon="0.76281">
        <ele>141.38111707346</ele>
        <time>2021-10-01T08:57:18.180Z</time>
      </trkpt>
      <trkpt lat="44.5995" lon="0.7627">
        <ele>140.72675805637</ele>
        <time>2021-10-01T08:57:17.189Z</time>
      </trkpt>
      <trkpt lat="44.59941" lon="0.76272">
        <ele>139.91790994396</ele>
        <time>2021-10-01T08:57:16.205Z</time>
      </trkpt>
      <trkpt lat="44.5993" lon="0.76263">
        <ele>139.12474464405</ele>
        <time>2021-10-01T08:57:15.223Z</time>
      </trkpt>
      <trkpt lat="44.59888" lon="0.76238">
        <ele>138.19329093831</ele>
        <time>2021-10-01T08:57:14.244Z</time>
      </trkpt>
      <trkpt lat="44.59852" lon="0.76221">
        <ele>137.35485557341</ele>
        <time>2021-10-01T08:57:13.274Z</time>
      </trkpt>
      <trkpt lat="44.59843" lon="0.76212">
        <ele>136.75898967305</ele>
        <time>2021-10-01T08:57:12.312Z</time>
      </trkpt>
      <trkpt lat="44.59842" lon="0.76207">
        <ele>136.28914757392</ele>
        <time>2021-10-01T08:57:11.352Z</time>
      </trkpt>
      <trkpt lat="44.59841" lon="0.762">
        <ele>135.91647026551</ele>
        <time>2021-10-01T08:57:10.393Z</time>
      </trkpt>
      <trkpt lat="44.59842" lon="0.76188">
        <ele>135.4894749445</ele>
        <time>2021-10-01T08:57:08.477Z</time>
      </trkpt>
      <trkpt lat="44.59843" lon="0.76168">
        <ele>135.442537329</ele>
        <time>2021-10-01T08:57:07.520Z</time>
      </trkpt>
      <trkpt lat="44.59858" lon="0.76076">
        <ele>135.42444397449</ele>
        <time>2021-10-01T08:57:06.566Z</time>
      </trkpt>
      <trkpt lat="44.59864" lon="0.7601">
        <ele>135.63862349401</ele>
        <time>2021-10-01T08:57:05.626Z</time>
      </trkpt>
      <trkpt lat="44.59887" lon="0.75926">
        <ele>135.99467445808</ele>
        <time>2021-10-01T08:57:04.695Z</time>
      </trkpt>
      <trkpt lat="44.59902" lon="0.75872">
        <ele>136.7460567496</ele>
        <time>2021-10-01T08:57:03.777Z</time>
      </trkpt>
      <trkpt lat="44.59905" lon="0.75822">
        <ele>137.56611360977</ele>
        <time>2021-10-01T08:57:02.867Z</time>
      </trkpt>
      <trkpt lat="44.59907" lon="0.75814">
        <ele>139.69521866684</ele>
        <time>2021-10-01T08:57:01.063Z</time>
      </trkpt>
      <trkpt lat="44.59913" lon="0.75788">
        <ele>141.0220213892</ele>
        <time>2021-10-01T08:57:00.162Z</time>
      </trkpt>
      <trkpt lat="44.59917" lon="0.75781">
        <ele>142.50147980784</ele>
        <time>2021-10-01T08:56:59.264Z</time>
      </trkpt>
      <trkpt lat="44.59932" lon="0.75792">
        <ele>144.12613294294</ele>
        <time>2021-10-01T08:56:58.368Z</time>
      </trkpt>
      <trkpt lat="44.59963" lon="0.75808">
        <ele>145.95353390591</ele>
        <time>2021-10-01T08:56:57.475Z</time>
      </trkpt>
      <trkpt lat="44.60006" lon="0.75824">
        <ele>155.58433418057</ele>
        <time>2021-10-01T08:56:53.958Z</time>
      </trkpt>
      <trkpt lat="44.60118" lon="0.75633">
        <ele>157.90475251214</ele>
        <time>2021-10-01T08:56:53.081Z</time>
      </trkpt>
      <trkpt lat="44.60193" lon="0.75522">
        <ele>160.44238479786</ele>
        <time>2021-10-01T08:56:52.239Z</time>
      </trkpt>
      <trkpt lat="44.60254" lon="0.75405">
        <ele>162.03555418524</ele>
        <time>2021-10-01T08:56:51.419Z</time>
      </trkpt>
      <trkpt lat="44.60281" lon="0.75407">
        <ele>163.23461602876</ele>
        <time>2021-10-01T08:56:50.619Z</time>
      </trkpt>
      <trkpt lat="44.60444" lon="0.75501">
        <ele>164.09277860223</ele>
        <time>2021-10-01T08:56:49.825Z</time>
      </trkpt>
      <trkpt lat="44.60492" lon="0.75506">
        <ele>164.76848226038</ele>
        <time>2021-10-01T08:56:49.066Z</time>
      </trkpt>
      <trkpt lat="44.60553" lon="0.7551">
        <ele>164.9263165222</ele>
        <time>2021-10-01T08:56:48.317Z</time>
      </trkpt>
      <trkpt lat="44.60814" lon="0.75502">
        <ele>165.214430404</ele>
        <time>2021-10-01T08:56:47.580Z</time>
      </trkpt>
      <trkpt lat="44.60842" lon="0.75481">
        <ele>164.92227251079</ele>
        <time>2021-10-01T08:56:46.895Z</time>
      </trkpt>
      <trkpt lat="44.60879" lon="0.75463">
        <ele>163.1170316625</ele>
        <time>2021-10-01T08:56:45.546Z</time>
      </trkpt>
      <trkpt lat="44.60927" lon="0.75441">
        <ele>161.69068323357</ele>
        <time>2021-10-01T08:56:44.875Z</time>
      </trkpt>
      <trkpt lat="44.61014" lon="0.75388">
        <ele>159.5065144712</ele>
        <time>2021-10-01T08:56:44.214Z</time>
      </trkpt>
      <trkpt lat="44.61095" lon="0.75357">
        <ele>156.93545426488</ele>
        <time>2021-10-01T08:56:43.572Z</time>
      </trkpt>
      <trkpt lat="44.61185" lon="0.75346">
        <ele>153.90939193687</ele>
        <time>2021-10-01T08:56:42.947Z</time>
      </trkpt>
      <trkpt lat="44.61293" lon="0.75327">
        <ele>150.86747759341</ele>
        <time>2021-10-01T08:56:42.340Z</time>
      </trkpt>
      <trkpt lat="44.61437" lon="0.75433">
        <ele>147.01880052779</ele>
        <time>2021-10-01T08:56:41.755Z</time>
      </trkpt>
      <trkpt lat="44.61452" lon="0.75435">
        <ele>140.6295699217</ele>
        <time>2021-10-01T08:56:40.654Z</time>
      </trkpt>
      <trkpt lat="44.61529" lon="0.75442">
        <ele>136.67972897487</ele>
        <time>2021-10-01T08:56:40.105Z</time>
      </trkpt>
      <trkpt lat="44.61712" lon="0.75425">
        <ele>132.78384126378</ele>
        <time>2021-10-01T08:56:39.571Z</time>
      </trkpt>
      <trkpt lat="44.61792" lon="0.75432">
        <ele>129.37970877873</ele>
        <time>2021-10-01T08:56:39.074Z</time>
      </trkpt>
      <trkpt lat="44.61912" lon="0.75447">
        <ele>126.0070959894</ele>
        <time>2021-10-01T08:56:38.593Z</time>
      </trkpt>
      <trkpt lat="44.61952" lon="0.75444">
        <ele>117.23340843471</ele>
        <time>2021-10-01T08:56:37.687Z</time>
      </trkpt>
      <trkpt lat="44.62002" lon="0.75441">
        <ele>114.72396820646</ele>
        <time>2021-10-01T08:56:37.238Z</time>
      </trkpt>
      <trkpt lat="44.6216" lon="0.75464">
        <ele>112.09425638114</ele>
        <time>2021-10-01T08:56:36.799Z</time>
      </trkpt>
      <trkpt lat="44.62236" lon="0.75458">
        <ele>109.63725406298</ele>
        <time>2021-10-01T08:56:36.392Z</time>
      </trkpt>
      <trkpt lat="44.62317" lon="0.75456">
        <ele>107.35108378169</ele>
        <time>2021-10-01T08:56:36.000Z</time>
      </trkpt>
      <trkpt lat="44.6235" lon="0.75452">
        <ele>103.48852516582</ele>
        <time>2021-10-01T08:56:35.255Z</time>
      </trkpt>
      <trkpt lat="44.62377" lon="0.75448">
        <ele>101.79909564836</ele>
        <time>2021-10-01T08:56:34.886Z</time>
      </trkpt>
      <trkpt lat="44.62428" lon="0.75415">
        <ele>100.26654068861</ele>
        <time>2021-10-01T08:56:34.522Z</time>
      </trkpt>
      <trkpt lat="44.62432" lon="0.7541">
        <ele>97.3242962471</ele>
        <time>2021-10-01T08:56:33.818Z</time>
      </trkpt>
      <trkpt lat="44.62482" lon="0.75344">
        <ele>95.99328582762</ele>
        <time>2021-10-01T08:56:33.467Z</time>
      </trkpt>
      <trkpt lat="44.62587" lon="0.75197">
        <ele>94.47854640733</ele>
        <time>2021-10-01T08:56:33.129Z</time>
      </trkpt>
      <trkpt lat="44.62619" lon="0.75165">
        <ele>93.38215792061</ele>
        <time>2021-10-01T08:56:32.821Z</time>
      </trkpt>
      <trkpt lat="44.62648" lon="0.75139">
        <ele>92.44379817878</ele>
        <time>2021-10-01T08:56:32.521Z</time>
      </trkpt>
      <trkpt lat="44.62703" lon="0.75098">
        <ele>90.91875844311</ele>
        <time>2021-10-01T08:56:31.947Z</time>
      </trkpt>
      <trkpt lat="44.62721" lon="0.75085">
        <ele>90.38195984317</ele>
        <time>2021-10-01T08:56:31.666Z</time>
      </trkpt>
      <trkpt lat="44.62741" lon="0.75066">
        <ele>89.86909019163</ele>
        <time>2021-10-01T08:56:31.389Z</time>
      </trkpt>
      <trkpt lat="44.62769" lon="0.75037">
        <ele>89.47420385784</ele>
        <time>2021-10-01T08:56:31.117Z</time>
      </trkpt>
      <trkpt lat="44.6285" lon="0.74938">
        <ele>89.31081289703</ele>
        <time>2021-10-01T08:56:30.852Z</time>
      </trkpt>
      <trkpt lat="44.62965" lon="0.74811">
        <ele>88.90623752406</ele>
        <time>2021-10-01T08:56:30.609Z</time>
      </trkpt>
      <trkpt lat="44.63027" lon="0.74727">
        <ele>89.00974119452</ele>
        <time>2021-10-01T08:56:30.395Z</time>
      </trkpt>
      <trkpt lat="44.63062" lon="0.74678">
        <ele>89.38872257529</ele>
        <time>2021-10-01T08:56:30.198Z</time>
      </trkpt>
      <trkpt lat="44.6308" lon="0.74648">
        <ele>89.90569005852</ele>
        <time>2021-10-01T08:56:30.011Z</time>
      </trkpt>
      <trkpt lat="44.63096" lon="0.74636">
        <ele>90.64917291188</ele>
        <time>2021-10-01T08:56:29.830Z</time>
      </trkpt>
      <trkpt lat="44.6315" lon="0.74616">
        <ele>91.60745422297</ele>
        <time>2021-10-01T08:56:29.652Z</time>
      </trkpt>
      <trkpt lat="44.63159" lon="0.74614">
        <ele>92.69889697389</ele>
        <time>2021-10-01T08:56:29.485Z</time>
      </trkpt>
      <trkpt lat="44.63184" lon="0.74614">
        <ele>93.99841773366</ele>
        <time>2021-10-01T08:56:29.320Z</time>
      </trkpt>
      <trkpt lat="44.63241" lon="0.74616">
        <ele>95.5439387945</ele>
        <time>2021-10-01T08:56:29.160Z</time>
      </trkpt>
      <trkpt lat="44.63304" lon="0.74616">
        <ele>97.36640503679</ele>
        <time>2021-10-01T08:56:29.012Z</time>
      </trkpt>
      <trkpt lat="44.63333" lon="0.7461">
        <ele>98.59928538726</ele>
        <time>2021-10-01T08:56:28.876Z</time>
      </trkpt>
      <trkpt lat="44.63357" lon="0.74601">
        <ele>99.64849062265</ele>
        <time>2021-10-01T08:56:28.746Z</time>
      </trkpt>
      <trkpt lat="44.63345" lon="0.74598">
        <ele>101.49213783294</ele>
        <time>2021-10-01T08:56:28.621Z</time>
      </trkpt>
      <trkpt lat="44.63357" lon="0.74601">
        <ele>102.36625953851</ele>
        <time>2021-10-01T08:56:28.498Z</time>
      </trkpt>
      <trkpt lat="44.63365" lon="0.74598">
        <ele>103.11441954677</ele>
        <time>2021-10-01T08:56:28.378Z</time>
      </trkpt>
      <trkpt lat="44.63385" lon="0.74584">
        <ele>103.82051210294</ele>
        <time>2021-10-01T08:56:28.259Z</time>
      </trkpt>
      <trkpt lat="44.63403" lon="0.7457">
        <ele>104.2945532219</ele>
        <time>2021-10-01T08:56:28.145Z</time>
      </trkpt>
      <trkpt lat="44.63474" lon="0.74518">
        <ele>104.51093702016</ele>
        <time>2021-10-01T08:56:28.035Z</time>
      </trkpt>
      <trkpt lat="44.63494" lon="0.74502">
        <ele>104.71108391422</ele>
        <time>2021-10-01T08:56:27.941Z</time>
      </trkpt>
      <trkpt lat="44.6354" lon="0.74469">
        <ele>104.74766661024</ele>
        <time>2021-10-01T08:56:27.852Z</time>
      </trkpt>
      <trkpt lat="44.63543" lon="0.74467">
        <ele>104.73260218694</ele>
        <time>2021-10-01T08:56:27.695Z</time>
      </trkpt>
      <trkpt lat="44.63522" lon="0.74402">
        <ele>104.39962822364</ele>
        <time>2021-10-01T08:56:27.617Z</time>
      </trkpt>
      <trkpt lat="44.63517" lon="0.74381">
        <ele>104.18597599548</ele>
        <time>2021-10-01T08:56:27.549Z</time>
      </trkpt>
      <trkpt lat="44.63513" lon="0.74355">
        <ele>103.90663655593</ele>
        <time>2021-10-01T08:56:27.484Z</time>
      </trkpt>
      <trkpt lat="44.63525" lon="0.74334">
        <ele>103.09742376441</ele>
        <time>2021-10-01T08:56:27.366Z</time>
      </trkpt>
      <trkpt lat="44.63531" lon="0.74322">
        <ele>102.56014802471</ele>
        <time>2021-10-01T08:56:27.309Z</time>
      </trkpt>
      <trkpt lat="44.63538" lon="0.74295">
        <ele>101.90146588245</ele>
        <time>2021-10-01T08:56:27.254Z</time>
      </trkpt>
      <trkpt lat="44.63555" lon="0.74234">
        <ele>101.01209550273</ele>
        <time>2021-10-01T08:56:27.203Z</time>
      </trkpt>
      <trkpt lat="44.6356" lon="0.74217">
        <ele>99.36275215804</ele>
        <time>2021-10-01T08:56:27.122Z</time>
      </trkpt>
      <trkpt lat="44.63578" lon="0.74156">
        <ele>98.33088268951</ele>
        <time>2021-10-01T08:56:27.083Z</time>
      </trkpt>
      <trkpt lat="44.63596" lon="0.74095">
        <ele>97.36301828234</ele>
        <time>2021-10-01T08:56:27.053Z</time>
      </trkpt>
      <trkpt lat="44.63608" lon="0.7405">
        <ele>96.39780252212</ele>
        <time>2021-10-01T08:56:27.033Z</time>
      </trkpt>
      <trkpt lat="44.63615" lon="0.74027">
        <ele>95.72314684383</ele>
        <time>2021-10-01T08:56:27.019Z</time>
      </trkpt>
      <trkpt lat="44.63622" lon="0.74003">
        <ele>95.04849070279</ele>
        <time>2021-10-01T08:56:27.009Z</time>
      </trkpt>
      <trkpt lat="44.63631" lon="0.73981">
        <ele>94.43452494748</ele>
        <time>2021-10-01T08:56:27.003Z</time>
      </trkpt>
      <trkpt lat="44.63627" lon="0.73964">
        <ele>89.1</ele>
        <time>2021-10-01T10:07:03.821Z</time>
        <extensions>
          <visugpx:TrkExtension xmlns:visugpx="https://www.visugpx.com/editgpx/">
            <visugpx:node>6</visugpx:node>
            </visugpx:TrkExtension>
        </extensions>
      </trkpt>
      <trkpt lat="44.63631" lon="0.73981">
        <ele>90.1</ele>
        <time>2021-10-01T10:06:55.954Z</time>
      </trkpt>
      <trkpt lat="44.63622" lon="0.74003">
        <ele>91.1</ele>
        <time>2021-10-01T10:06:48.090Z</time>
      </trkpt>
      <trkpt lat="44.63615" lon="0.74027">
        <ele>92</ele>
        <time>2021-10-01T10:06:40.229Z</time>
      </trkpt>
      <trkpt lat="44.63608" lon="0.7405">
        <ele>92.8</ele>
        <time>2021-10-01T10:06:32.372Z</time>
      </trkpt>
      <trkpt lat="44.6362" lon="0.74089">
        <ele>94.3</ele>
        <time>2021-10-01T10:06:24.519Z</time>
      </trkpt>
      <trkpt lat="44.63636" lon="0.74127">
        <ele>95.7</ele>
        <time>2021-10-01T10:06:16.672Z</time>
      </trkpt>
      <trkpt lat="44.63657" lon="0.74178">
        <ele>95.3</ele>
        <time>2021-10-01T10:06:08.831Z</time>
      </trkpt>
      <trkpt lat="44.63678" lon="0.74231">
        <ele>94.7</ele>
        <time>2021-10-01T10:05:53.174Z</time>
      </trkpt>
      <trkpt lat="44.63698" lon="0.74284">
        <ele>96.2</ele>
        <time>2021-10-01T10:05:45.350Z</time>
      </trkpt>
      <trkpt lat="44.63715" lon="0.74332">
        <ele>97</ele>
        <time>2021-10-01T10:05:37.535Z</time>
      </trkpt>
      <trkpt lat="44.63717" lon="0.74339">
        <ele>96.8</ele>
        <time>2021-10-01T10:05:29.727Z</time>
      </trkpt>
      <trkpt lat="44.63727" lon="0.74367">
        <ele>95.8</ele>
        <time>2021-10-01T10:05:21.920Z</time>
      </trkpt>
      <trkpt lat="44.6372" lon="0.74385">
        <ele>96.1</ele>
        <time>2021-10-01T10:05:06.319Z</time>
      </trkpt>
      <trkpt lat="44.63701" lon="0.7444">
        <ele>97.8</ele>
        <time>2021-10-01T10:04:58.520Z</time>
      </trkpt>
      <trkpt lat="44.63707" lon="0.74462">
        <ele>97.5</ele>
        <time>2021-10-01T10:04:50.729Z</time>
      </trkpt>
      <trkpt lat="44.63713" lon="0.74491">
        <ele>96.9</ele>
        <time>2021-10-01T10:04:42.942Z</time>
      </trkpt>
      <trkpt lat="44.63673" lon="0.74542">
        <ele>98.8</ele>
        <time>2021-10-01T10:04:35.159Z</time>
      </trkpt>
      <trkpt lat="44.63644" lon="0.74573">
        <ele>98.6</ele>
        <time>2021-10-01T10:04:27.387Z</time>
      </trkpt>
      <trkpt lat="44.63656" lon="0.74585">
        <ele>98.4</ele>
        <time>2021-10-01T10:04:19.622Z</time>
      </trkpt>
      <trkpt lat="44.63681" lon="0.74603">
        <ele>97.1</ele>
        <time>2021-10-01T10:04:11.860Z</time>
      </trkpt>
      <trkpt lat="44.63665" lon="0.74619">
        <ele>98.1</ele>
        <time>2021-10-01T10:04:04.104Z</time>
      </trkpt>
      <trkpt lat="44.63626" lon="0.7462">
        <ele>99.5</ele>
        <time>2021-10-01T10:03:56.352Z</time>
      </trkpt>
      <trkpt lat="44.63599" lon="0.74627">
        <ele>100.2</ele>
        <time>2021-10-01T10:03:48.607Z</time>
      </trkpt>
      <trkpt lat="44.63584" lon="0.74642">
        <ele>100</ele>
        <time>2021-10-01T10:03:40.868Z</time>
      </trkpt>
      <trkpt lat="44.63591" lon="0.74656">
        <ele>99.8</ele>
        <time>2021-10-01T10:03:25.400Z</time>
      </trkpt>
      <trkpt lat="44.63584" lon="0.74642">
        <ele>100</ele>
        <time>2021-10-01T10:03:17.667Z</time>
      </trkpt>
      <trkpt lat="44.63544" lon="0.74689">
        <ele>100.6</ele>
        <time>2021-10-01T10:03:02.216Z</time>
      </trkpt>
      <trkpt lat="44.63495" lon="0.74747">
        <ele>101.3</ele>
        <time>2021-10-01T10:02:54.496Z</time>
      </trkpt>
      <trkpt lat="44.63469" lon="0.74792">
        <ele>101.1</ele>
        <time>2021-10-01T10:02:46.789Z</time>
      </trkpt>
      <trkpt lat="44.63418" lon="0.74874">
        <ele>100.5</ele>
        <time>2021-10-01T10:02:39.090Z</time>
      </trkpt>
      <trkpt lat="44.63404" lon="0.74884">
        <ele>100.6</ele>
        <time>2021-10-01T10:02:31.407Z</time>
      </trkpt>
      <trkpt lat="44.63395" lon="0.74926">
        <ele>100</ele>
        <time>2021-10-01T10:02:23.727Z</time>
      </trkpt>
      <trkpt lat="44.63388" lon="0.7497">
        <ele>99.1</ele>
        <time>2021-10-01T10:02:16.053Z</time>
      </trkpt>
      <trkpt lat="44.63384" lon="0.74997">
        <ele>98.8</ele>
        <time>2021-10-01T10:02:08.385Z</time>
      </trkpt>
      <trkpt lat="44.63378" lon="0.75015">
        <ele>98.9</ele>
        <time>2021-10-01T10:02:00.721Z</time>
      </trkpt>
      <trkpt lat="44.63362" lon="0.75075">
        <ele>99.7</ele>
        <time>2021-10-01T10:01:53.060Z</time>
      </trkpt>
      <trkpt lat="44.63343" lon="0.75122">
        <ele>100.5</ele>
        <time>2021-10-01T10:01:45.408Z</time>
      </trkpt>
      <trkpt lat="44.63315" lon="0.75181">
        <ele>101.7</ele>
        <time>2021-10-01T10:01:37.764Z</time>
      </trkpt>
      <trkpt lat="44.63299" lon="0.7521">
        <ele>102.6</ele>
        <time>2021-10-01T10:01:30.130Z</time>
      </trkpt>
      <trkpt lat="44.6305" lon="0.75557">
        <ele>105.8</ele>
        <time>2021-10-01T10:01:07.385Z</time>
      </trkpt>
      <trkpt lat="44.63083" lon="0.75619">
        <ele>105</ele>
        <time>2021-10-01T10:00:59.827Z</time>
      </trkpt>
      <trkpt lat="44.63119" lon="0.75742">
        <ele>105</ele>
        <time>2021-10-01T10:00:52.280Z</time>
      </trkpt>
      <trkpt lat="44.63155" lon="0.7584">
        <ele>107.1</ele>
        <time>2021-10-01T10:00:44.752Z</time>
      </trkpt>
      <trkpt lat="44.63161" lon="0.75864">
        <ele>107.3</ele>
        <time>2021-10-01T10:00:29.730Z</time>
      </trkpt>
      <trkpt lat="44.63163" lon="0.75885">
        <ele>107.9</ele>
        <time>2021-10-01T10:00:22.221Z</time>
      </trkpt>
      <trkpt lat="44.63144" lon="0.75992">
        <ele>110.9</ele>
        <time>2021-10-01T10:00:14.715Z</time>
      </trkpt>
      <trkpt lat="44.63142" lon="0.76026">
        <ele>111</ele>
        <time>2021-10-01T10:00:07.225Z</time>
      </trkpt>
      <trkpt lat="44.63142" lon="0.76044">
        <ele>111</ele>
        <time>2021-10-01T09:59:59.740Z</time>
      </trkpt>
      <trkpt lat="44.63142" lon="0.76063">
        <ele>111</ele>
        <time>2021-10-01T09:59:44.777Z</time>
      </trkpt>
      <trkpt lat="44.63142" lon="0.76072">
        <ele>111</ele>
        <time>2021-10-01T09:59:37.297Z</time>
      </trkpt>
      <trkpt lat="44.63137" lon="0.7614">
        <ele>111</ele>
        <time>2021-10-01T09:59:29.818Z</time>
      </trkpt>
      <trkpt lat="44.63124" lon="0.76266">
        <ele>107.4</ele>
        <time>2021-10-01T09:59:22.349Z</time>
      </trkpt>
      <trkpt lat="44.63123" lon="0.76312">
        <ele>106.6</ele>
        <time>2021-10-01T09:59:14.898Z</time>
      </trkpt>
      <trkpt lat="44.63125" lon="0.76391">
        <ele>106.4</ele>
        <time>2021-10-01T09:59:07.454Z</time>
      </trkpt>
      <trkpt lat="44.63117" lon="0.766">
        <ele>100.3</ele>
        <time>2021-10-01T09:59:00.021Z</time>
      </trkpt>
      <trkpt lat="44.63123" lon="0.76675">
        <ele>100.9</ele>
        <time>2021-10-01T09:58:52.618Z</time>
      </trkpt>
      <trkpt lat="44.63122" lon="0.76695">
        <ele>100.6</ele>
        <time>2021-10-01T09:58:45.226Z</time>
      </trkpt>
      <trkpt lat="44.63116" lon="0.7672">
        <ele>100.8</ele>
        <time>2021-10-01T09:58:37.837Z</time>
      </trkpt>
      <trkpt lat="44.63104" lon="0.76758">
        <ele>100.3</ele>
        <time>2021-10-01T09:58:30.451Z</time>
      </trkpt>
      <trkpt lat="44.63079" lon="0.76821">
        <ele>100.5</ele>
        <time>2021-10-01T09:58:23.071Z</time>
      </trkpt>
      <trkpt lat="44.63054" lon="0.76875">
        <ele>101.1</ele>
        <time>2021-10-01T09:58:15.702Z</time>
      </trkpt>
      <trkpt lat="44.63019" lon="0.76946">
        <ele>102.6</ele>
        <time>2021-10-01T09:58:08.342Z</time>
      </trkpt>
      <trkpt lat="44.62958" lon="0.77071">
        <ele>105</ele>
        <time>2021-10-01T09:58:00.994Z</time>
      </trkpt>
      <trkpt lat="44.62946" lon="0.771">
        <ele>105.9</ele>
        <time>2021-10-01T09:57:53.668Z</time>
      </trkpt>
      <trkpt lat="44.62944" lon="0.77164">
        <ele>106.1</ele>
        <time>2021-10-01T09:57:46.347Z</time>
      </trkpt>
      <trkpt lat="44.62936" lon="0.77197">
        <ele>106.5</ele>
        <time>2021-10-01T09:57:39.035Z</time>
      </trkpt>
      <trkpt lat="44.62924" lon="0.77229">
        <ele>106.8</ele>
        <time>2021-10-01T09:57:31.728Z</time>
      </trkpt>
      <trkpt lat="44.62904" lon="0.77269">
        <ele>106.3</ele>
        <time>2021-10-01T09:57:24.426Z</time>
      </trkpt>
      <trkpt lat="44.62898" lon="0.77293">
        <ele>106.9</ele>
        <time>2021-10-01T09:57:17.131Z</time>
      </trkpt>
      <trkpt lat="44.629" lon="0.77339">
        <ele>109.6</ele>
        <time>2021-10-01T09:57:09.839Z</time>
      </trkpt>
      <trkpt lat="44.62898" lon="0.77347">
        <ele>109.7</ele>
        <time>2021-10-01T09:57:02.554Z</time>
      </trkpt>
      <trkpt lat="44.62771" lon="0.77372">
        <ele>112.2</ele>
        <time>2021-10-01T09:56:55.270Z</time>
      </trkpt>
      <trkpt lat="44.62679" lon="0.77396">
        <ele>114.3</ele>
        <time>2021-10-01T09:56:48.012Z</time>
      </trkpt>
      <trkpt lat="44.62646" lon="0.77409">
        <ele>115</ele>
        <time>2021-10-01T09:56:40.773Z</time>
      </trkpt>
      <trkpt lat="44.62615" lon="0.77428">
        <ele>115.9</ele>
        <time>2021-10-01T09:56:33.540Z</time>
      </trkpt>
      <trkpt lat="44.62596" lon="0.77436">
        <ele>116.4</ele>
        <time>2021-10-01T09:56:26.314Z</time>
      </trkpt>
      <trkpt lat="44.62576" lon="0.77439">
        <ele>117.1</ele>
        <time>2021-10-01T09:56:19.092Z</time>
      </trkpt>
      <trkpt lat="44.62539" lon="0.77435">
        <ele>118.3</ele>
        <time>2021-10-01T09:56:11.874Z</time>
      </trkpt>
      <trkpt lat="44.62519" lon="0.77441">
        <ele>119.3</ele>
        <time>2021-10-01T09:56:04.664Z</time>
      </trkpt>
      <trkpt lat="44.62504" lon="0.77449">
        <ele>119.9</ele>
        <time>2021-10-01T09:55:57.458Z</time>
      </trkpt>
      <trkpt lat="44.62481" lon="0.77464">
        <ele>121.1</ele>
        <time>2021-10-01T09:55:50.255Z</time>
      </trkpt>
      <trkpt lat="44.62423" lon="0.77548">
        <ele>124.2</ele>
        <time>2021-10-01T09:55:35.876Z</time>
      </trkpt>
      <trkpt lat="44.62401" lon="0.77579">
        <ele>126.1</ele>
        <time>2021-10-01T09:55:28.695Z</time>
      </trkpt>
      <trkpt lat="44.62385" lon="0.77592">
        <ele>127.4</ele>
        <time>2021-10-01T09:55:21.520Z</time>
      </trkpt>
      <trkpt lat="44.62357" lon="0.77603">
        <ele>129.8</ele>
        <time>2021-10-01T09:55:14.349Z</time>
      </trkpt>
      <trkpt lat="44.62328" lon="0.77603">
        <ele>131.9</ele>
        <time>2021-10-01T09:55:00.024Z</time>
      </trkpt>
      <trkpt lat="44.62301" lon="0.77603">
        <ele>134.3</ele>
        <time>2021-10-01T09:54:52.864Z</time>
      </trkpt>
      <trkpt lat="44.62281" lon="0.77608">
        <ele>135.2</ele>
        <time>2021-10-01T09:54:45.710Z</time>
      </trkpt>
      <trkpt lat="44.62245" lon="0.77628">
        <ele>140.4</ele>
        <time>2021-10-01T09:54:38.560Z</time>
      </trkpt>
      <trkpt lat="44.62229" lon="0.7763">
        <ele>141.5</ele>
        <time>2021-10-01T09:54:31.417Z</time>
      </trkpt>
      <trkpt lat="44.62216" lon="0.7762">
        <ele>141.9</ele>
        <time>2021-10-01T09:54:24.278Z</time>
      </trkpt>
      <trkpt lat="44.62191" lon="0.77572">
        <ele>144.9</ele>
        <time>2021-10-01T09:54:17.142Z</time>
      </trkpt>
      <trkpt lat="44.62088" lon="0.77413">
        <ele>148.9</ele>
        <time>2021-10-01T09:54:02.917Z</time>
      </trkpt>
      <trkpt lat="44.62017" lon="0.77304">
        <ele>143.9</ele>
        <time>2021-10-01T09:53:55.820Z</time>
      </trkpt>
      <trkpt lat="44.61993" lon="0.77259">
        <ele>147.3</ele>
        <time>2021-10-01T09:53:48.744Z</time>
      </trkpt>
      <trkpt lat="44.61956" lon="0.77327">
        <ele>146.5</ele>
        <time>2021-10-01T09:53:41.676Z</time>
      </trkpt>
      <trkpt lat="44.61947" lon="0.77353">
        <ele>146.8</ele>
        <time>2021-10-01T09:53:34.620Z</time>
      </trkpt>
      <trkpt lat="44.61946" lon="0.77373">
        <ele>146.5</ele>
        <time>2021-10-01T09:53:27.568Z</time>
      </trkpt>
      <trkpt lat="44.61948" lon="0.774">
        <ele>146.4</ele>
        <time>2021-10-01T09:53:20.519Z</time>
      </trkpt>
      <trkpt lat="44.61945" lon="0.7745">
        <ele>147.4</ele>
        <time>2021-10-01T09:53:13.474Z</time>
      </trkpt>
      <trkpt lat="44.61939" lon="0.77486">
        <ele>149.6</ele>
        <time>2021-10-01T09:53:06.436Z</time>
      </trkpt>
      <trkpt lat="44.61927" lon="0.77554">
        <ele>152.6</ele>
        <time>2021-10-01T09:52:59.403Z</time>
      </trkpt>
      <trkpt lat="44.61922" lon="0.77613">
        <ele>153</ele>
        <time>2021-10-01T09:52:52.380Z</time>
      </trkpt>
      <trkpt lat="44.61916" lon="0.77656">
        <ele>153</ele>
        <time>2021-10-01T09:52:45.366Z</time>
      </trkpt>
      <trkpt lat="44.61915" lon="0.77707">
        <ele>152.2</ele>
        <time>2021-10-01T09:52:38.358Z</time>
      </trkpt>
      <trkpt lat="44.61912" lon="0.77749">
        <ele>151.5</ele>
        <time>2021-10-01T09:52:31.357Z</time>
      </trkpt>
      <trkpt lat="44.61899" lon="0.77831">
        <ele>152.3</ele>
        <time>2021-10-01T09:52:24.362Z</time>
      </trkpt>
      <trkpt lat="44.61888" lon="0.77891">
        <ele>151</ele>
        <time>2021-10-01T09:52:17.379Z</time>
      </trkpt>
      <trkpt lat="44.61874" lon="0.77934">
        <ele>150.4</ele>
        <time>2021-10-01T09:52:10.405Z</time>
      </trkpt>
      <trkpt lat="44.61851" lon="0.77989">
        <ele>148.1</ele>
        <time>2021-10-01T09:52:03.438Z</time>
      </trkpt>
      <trkpt lat="44.61833" lon="0.7804">
        <ele>148.6</ele>
        <time>2021-10-01T09:51:56.480Z</time>
      </trkpt>
      <trkpt lat="44.61827" lon="0.78073">
        <ele>148.9</ele>
        <time>2021-10-01T09:51:49.530Z</time>
      </trkpt>
      <trkpt lat="44.61827" lon="0.78082">
        <ele>149.2</ele>
        <time>2021-10-01T09:51:35.641Z</time>
      </trkpt>
      <trkpt lat="44.61828" lon="0.78094">
        <ele>149.5</ele>
        <time>2021-10-01T09:51:28.697Z</time>
      </trkpt>
      <trkpt lat="44.61835" lon="0.78117">
        <ele>150.5</ele>
        <time>2021-10-01T09:51:21.755Z</time>
      </trkpt>
      <trkpt lat="44.61853" lon="0.78146">
        <ele>152.3</ele>
        <time>2021-10-01T09:51:14.817Z</time>
      </trkpt>
      <trkpt lat="44.61854" lon="0.78146">
        <ele>152.3</ele>
        <time>2021-10-01T09:50:54.018Z</time>
      </trkpt>
      <trkpt lat="44.6189" lon="0.78297">
        <ele>154</ele>
        <time>2021-10-01T09:50:47.085Z</time>
      </trkpt>
      <trkpt lat="44.6181" lon="0.78647">
        <ele>165.5</ele>
        <time>2021-10-01T09:50:40.175Z</time>
      </trkpt>
      <trkpt lat="44.61749" lon="0.78759">
        <ele>165.4</ele>
        <time>2021-10-01T09:50:33.318Z</time>
      </trkpt>
      <trkpt lat="44.61838" lon="0.78991">
        <ele>144</ele>
        <time>2021-10-01T09:50:26.481Z</time>
      </trkpt>
      <trkpt lat="44.6188" lon="0.79078">
        <ele>155</ele>
        <time>2021-10-01T09:50:19.682Z</time>
      </trkpt>
      <trkpt lat="44.61862" lon="0.79151">
        <ele>157.9</ele>
        <time>2021-10-01T09:50:12.898Z</time>
      </trkpt>
      <trkpt lat="44.61873" lon="0.79179">
        <ele>159.5</ele>
        <time>2021-10-01T09:50:06.125Z</time>
      </trkpt>
      <trkpt lat="44.62075" lon="0.7962">
        <ele>164.2</ele>
        <time>2021-10-01T09:49:59.356Z</time>
      </trkpt>
      <trkpt lat="44.62172" lon="0.79739">
        <ele>163.3</ele>
        <time>2021-10-01T09:49:52.662Z</time>
      </trkpt>
      <trkpt lat="44.62296" lon="0.79898">
        <ele>162.3</ele>
        <time>2021-10-01T09:49:45.994Z</time>
      </trkpt>
      <trkpt lat="44.62346" lon="0.80018">
        <ele>163.3</ele>
        <time>2021-10-01T09:49:39.359Z</time>
      </trkpt>
      <trkpt lat="44.62344" lon="0.8004">
        <ele>163.4</ele>
        <time>2021-10-01T09:49:32.744Z</time>
      </trkpt>
      <trkpt lat="44.62353" lon="0.80086">
        <ele>163.7</ele>
        <time>2021-10-01T09:49:26.132Z</time>
      </trkpt>
      <trkpt lat="44.62376" lon="0.80165">
        <ele>166</ele>
        <time>2021-10-01T09:49:12.934Z</time>
      </trkpt>
      <trkpt lat="44.62433" lon="0.80361">
        <ele>165.8</ele>
        <time>2021-10-01T09:49:06.341Z</time>
      </trkpt>
      <trkpt lat="44.62439" lon="0.8039">
        <ele>165.4</ele>
        <time>2021-10-01T09:48:59.779Z</time>
      </trkpt>
      <trkpt lat="44.62439" lon="0.80433">
        <ele>166</ele>
        <time>2021-10-01T09:48:53.221Z</time>
      </trkpt>
      <trkpt lat="44.62432" lon="0.80507">
        <ele>167.2</ele>
        <time>2021-10-01T09:48:46.669Z</time>
      </trkpt>
      <trkpt lat="44.62431" lon="0.80514">
        <ele>167.3</ele>
        <time>2021-10-01T09:48:33.588Z</time>
      </trkpt>
      <trkpt lat="44.62427" lon="0.80547">
        <ele>167.8</ele>
        <time>2021-10-01T09:48:27.048Z</time>
      </trkpt>
      <trkpt lat="44.62423" lon="0.80555">
        <ele>168</ele>
        <time>2021-10-01T09:48:20.513Z</time>
      </trkpt>
      <trkpt lat="44.6242" lon="0.80566">
        <ele>168</ele>
        <time>2021-10-01T09:48:13.979Z</time>
      </trkpt>
      <trkpt lat="44.62407" lon="0.80585">
        <ele>167.7</ele>
        <time>2021-10-01T09:48:07.447Z</time>
      </trkpt>
      <trkpt lat="44.62336" lon="0.80671">
        <ele>167.4</ele>
        <time>2021-10-01T09:47:54.408Z</time>
      </trkpt>
      <trkpt lat="44.62301" lon="0.80713">
        <ele>166.8</ele>
        <time>2021-10-01T09:47:47.898Z</time>
      </trkpt>
      <trkpt lat="44.62209" lon="0.80849">
        <ele>156.3</ele>
        <time>2021-10-01T09:47:34.923Z</time>
      </trkpt>
      <trkpt lat="44.622" lon="0.80861">
        <ele>155.4</ele>
        <time>2021-10-01T09:47:28.449Z</time>
      </trkpt>
      <trkpt lat="44.62183" lon="0.80879">
        <ele>153.5</ele>
        <time>2021-10-01T09:47:21.978Z</time>
      </trkpt>
      <trkpt lat="44.62143" lon="0.809">
        <ele>152.5</ele>
        <time>2021-10-01T09:47:15.511Z</time>
      </trkpt>
      <trkpt lat="44.62097" lon="0.80918">
        <ele>153.6</ele>
        <time>2021-10-01T09:47:09.052Z</time>
      </trkpt>
      <trkpt lat="44.62077" lon="0.80922">
        <ele>154.6</ele>
        <time>2021-10-01T09:46:56.158Z</time>
      </trkpt>
      <trkpt lat="44.62056" lon="0.80927">
        <ele>156.3</ele>
        <time>2021-10-01T09:46:49.713Z</time>
      </trkpt>
      <trkpt lat="44.62035" lon="0.80938">
        <ele>156.4</ele>
        <time>2021-10-01T09:46:43.272Z</time>
      </trkpt>
      <trkpt lat="44.62013" lon="0.80957">
        <ele>154.6</ele>
        <time>2021-10-01T09:46:36.836Z</time>
      </trkpt>
      <trkpt lat="44.61952" lon="0.81047">
        <ele>156.2</ele>
        <time>2021-10-01T09:46:30.405Z</time>
      </trkpt>
      <trkpt lat="44.61938" lon="0.81069">
        <ele>157.4</ele>
        <time>2021-10-01T09:46:23.992Z</time>
      </trkpt>
      <trkpt lat="44.6193" lon="0.81091">
        <ele>157.5</ele>
        <time>2021-10-01T09:46:11.177Z</time>
      </trkpt>
      <trkpt lat="44.61906" lon="0.81148">
        <ele>156.3</ele>
        <time>2021-10-01T09:46:04.771Z</time>
      </trkpt>
      <trkpt lat="44.61875" lon="0.81217">
        <ele>152.1</ele>
        <time>2021-10-01T09:45:51.990Z</time>
      </trkpt>
      <trkpt lat="44.61861" lon="0.81248">
        <ele>151.9</ele>
        <time>2021-10-01T09:45:45.605Z</time>
      </trkpt>
      <trkpt lat="44.61843" lon="0.81276">
        <ele>151.3</ele>
        <time>2021-10-01T09:45:39.226Z</time>
      </trkpt>
      <trkpt lat="44.61811" lon="0.8131">
        <ele>150.5</ele>
        <time>2021-10-01T09:45:26.486Z</time>
      </trkpt>
      <trkpt lat="44.61811" lon="0.81307">
        <ele>150.3</ele>
        <time>2021-10-01T09:45:20.120Z</time>
      </trkpt>
      <trkpt lat="44.62017" lon="0.81742">
        <ele>149.1</ele>
        <time>2021-10-01T09:45:13.755Z</time>
      </trkpt>
      <trkpt lat="44.62018" lon="0.81746">
        <ele>148.9</ele>
        <time>2021-10-01T09:45:01.174Z</time>
      </trkpt>
      <trkpt lat="44.6203" lon="0.81769">
        <ele>145.9</ele>
        <time>2021-10-01T09:44:54.884Z</time>
      </trkpt>
      <trkpt lat="44.62048" lon="0.81846">
        <ele>142</ele>
        <time>2021-10-01T09:44:48.598Z</time>
      </trkpt>
      <trkpt lat="44.62059" lon="0.81895">
        <ele>142.4</ele>
        <time>2021-10-01T09:44:42.323Z</time>
      </trkpt>
      <trkpt lat="44.62064" lon="0.81914">
        <ele>142.9</ele>
        <time>2021-10-01T09:44:36.056Z</time>
      </trkpt>
      <trkpt lat="44.62071" lon="0.81931">
        <ele>143.2</ele>
        <time>2021-10-01T09:44:29.791Z</time>
      </trkpt>
      <trkpt lat="44.62091" lon="0.81953">
        <ele>143.9</ele>
        <time>2021-10-01T09:44:23.529Z</time>
      </trkpt>
      <trkpt lat="44.62094" lon="0.8196">
        <ele>143.5</ele>
        <time>2021-10-01T09:44:11.017Z</time>
      </trkpt>
      <trkpt lat="44.62099" lon="0.81969">
        <ele>143</ele>
        <time>2021-10-01T09:44:04.762Z</time>
      </trkpt>
      <trkpt lat="44.62122" lon="0.82025">
        <ele>143.3</ele>
        <time>2021-10-01T09:43:58.508Z</time>
      </trkpt>
      <trkpt lat="44.62137" lon="0.82069">
        <ele>142.3</ele>
        <time>2021-10-01T09:43:52.263Z</time>
      </trkpt>
      <trkpt lat="44.62156" lon="0.82149">
        <ele>140</ele>
        <time>2021-10-01T09:43:46.025Z</time>
      </trkpt>
      <trkpt lat="44.62144" lon="0.82174">
        <ele>139</ele>
        <time>2021-10-01T09:43:39.799Z</time>
      </trkpt>
      <trkpt lat="44.62137" lon="0.82182">
        <ele>138.8</ele>
        <time>2021-10-01T09:43:33.578Z</time>
      </trkpt>
      <trkpt lat="44.6213" lon="0.82186">
        <ele>138.1</ele>
        <time>2021-10-01T09:43:27.359Z</time>
      </trkpt>
      <trkpt lat="44.62113" lon="0.82186">
        <ele>136.5</ele>
        <time>2021-10-01T09:43:21.141Z</time>
      </trkpt>
      <trkpt lat="44.62092" lon="0.82196">
        <ele>133.8</ele>
        <time>2021-10-01T09:43:14.926Z</time>
      </trkpt>
      <trkpt lat="44.62084" lon="0.82202">
        <ele>132.5</ele>
        <time>2021-10-01T09:43:08.716Z</time>
      </trkpt>
      <trkpt lat="44.62078" lon="0.82217">
        <ele>131.3</ele>
        <time>2021-10-01T09:43:02.508Z</time>
      </trkpt>
      <trkpt lat="44.62043" lon="0.82391">
        <ele>123.5</ele>
        <time>2021-10-01T09:42:50.122Z</time>
      </trkpt>
      <trkpt lat="44.61991" lon="0.82646">
        <ele>117.9</ele>
        <time>2021-10-01T09:42:43.942Z</time>
      </trkpt>
      <trkpt lat="44.62" lon="0.82651">
        <ele>118</ele>
        <time>2021-10-01T09:42:37.800Z</time>
      </trkpt>
      <trkpt lat="44.62007" lon="0.82656">
        <ele>118</ele>
        <time>2021-10-01T09:42:31.660Z</time>
      </trkpt>
      <trkpt lat="44.62026" lon="0.82669">
        <ele>118</ele>
        <time>2021-10-01T09:42:25.521Z</time>
      </trkpt>
      <trkpt lat="44.62039" lon="0.82684">
        <ele>118.4</ele>
        <time>2021-10-01T09:42:19.387Z</time>
      </trkpt>
      <trkpt lat="44.62046" lon="0.82696">
        <ele>118.7</ele>
        <time>2021-10-01T09:42:13.256Z</time>
      </trkpt>
      <trkpt lat="44.62051" lon="0.82704">
        <ele>118.8</ele>
        <time>2021-10-01T09:42:07.127Z</time>
      </trkpt>
      <trkpt lat="44.62076" lon="0.82765">
        <ele>119.6</ele>
        <time>2021-10-01T09:42:01.000Z</time>
      </trkpt>
      <trkpt lat="44.62108" lon="0.8285">
        <ele>120.8</ele>
        <time>2021-10-01T09:41:54.883Z</time>
      </trkpt>
      <trkpt lat="44.62119" lon="0.82868">
        <ele>121.2</ele>
        <time>2021-10-01T09:41:48.780Z</time>
      </trkpt>
      <trkpt lat="44.62141" lon="0.82892">
        <ele>121</ele>
        <time>2021-10-01T09:41:42.680Z</time>
      </trkpt>
      <trkpt lat="44.62184" lon="0.82917">
        <ele>122.2</ele>
        <time>2021-10-01T09:41:36.586Z</time>
      </trkpt>
      <trkpt lat="44.62206" lon="0.82936">
        <ele>122.9</ele>
        <time>2021-10-01T09:41:30.501Z</time>
      </trkpt>
      <trkpt lat="44.62225" lon="0.82958">
        <ele>123.2</ele>
        <time>2021-10-01T09:41:24.421Z</time>
      </trkpt>
      <trkpt lat="44.62243" lon="0.8299">
        <ele>123.8</ele>
        <time>2021-10-01T09:41:18.346Z</time>
      </trkpt>
      <trkpt lat="44.62277" lon="0.83057">
        <ele>124.9</ele>
        <time>2021-10-01T09:41:12.277Z</time>
      </trkpt>
      <trkpt lat="44.62291" lon="0.83098">
        <ele>124.2</ele>
        <time>2021-10-01T09:41:06.220Z</time>
      </trkpt>
      <trkpt lat="44.623" lon="0.83136">
        <ele>124.6</ele>
        <time>2021-10-01T09:41:00.169Z</time>
      </trkpt>
      <trkpt lat="44.62303" lon="0.83174">
        <ele>125.7</ele>
        <time>2021-10-01T09:40:54.124Z</time>
      </trkpt>
      <trkpt lat="44.62305" lon="0.83235">
        <ele>126.5</ele>
        <time>2021-10-01T09:40:48.084Z</time>
      </trkpt>
      <trkpt lat="44.62312" lon="0.83262">
        <ele>126.7</ele>
        <time>2021-10-01T09:40:42.053Z</time>
      </trkpt>
      <trkpt lat="44.62322" lon="0.83283">
        <ele>127</ele>
        <time>2021-10-01T09:40:36.026Z</time>
      </trkpt>
      <trkpt lat="44.62342" lon="0.83305">
        <ele>127.3</ele>
        <time>2021-10-01T09:40:30.003Z</time>
      </trkpt>
      <trkpt lat="44.62422" lon="0.83398">
        <ele>129.9</ele>
        <time>2021-10-01T09:40:23.985Z</time>
      </trkpt>
      <trkpt lat="44.62446" lon="0.83416">
        <ele>131.1</ele>
        <time>2021-10-01T09:40:17.988Z</time>
      </trkpt>
      <trkpt lat="44.62513" lon="0.83454">
        <ele>131.6</ele>
        <time>2021-10-01T09:40:11.996Z</time>
      </trkpt>
      <trkpt lat="44.62531" lon="0.83468">
        <ele>131.1</ele>
        <time>2021-10-01T09:40:06.019Z</time>
      </trkpt>
      <trkpt lat="44.62546" lon="0.83489">
        <ele>132.1</ele>
        <time>2021-10-01T09:40:00.045Z</time>
      </trkpt>
      <trkpt lat="44.62629" lon="0.83637">
        <ele>132.5</ele>
        <time>2021-10-01T09:39:54.076Z</time>
      </trkpt>
      <trkpt lat="44.62642" lon="0.83655">
        <ele>132.7</ele>
        <time>2021-10-01T09:39:48.134Z</time>
      </trkpt>
      <trkpt lat="44.62658" lon="0.83666">
        <ele>132.8</ele>
        <time>2021-10-01T09:39:42.195Z</time>
      </trkpt>
      <trkpt lat="44.62689" lon="0.83674">
        <ele>133.5</ele>
        <time>2021-10-01T09:39:30.331Z</time>
      </trkpt>
      <trkpt lat="44.62694" lon="0.83675">
        <ele>133.7</ele>
        <time>2021-10-01T09:39:18.474Z</time>
      </trkpt>
      <trkpt lat="44.62699" lon="0.83677">
        <ele>133.6</ele>
        <time>2021-10-01T09:39:12.546Z</time>
      </trkpt>
      <trkpt lat="44.62717" lon="0.83688">
        <ele>133.7</ele>
        <time>2021-10-01T09:39:06.619Z</time>
      </trkpt>
      <trkpt lat="44.62759" lon="0.8373">
        <ele>135.5</ele>
        <time>2021-10-01T09:39:00.696Z</time>
      </trkpt>
      <trkpt lat="44.62776" lon="0.83737">
        <ele>136.3</ele>
        <time>2021-10-01T09:38:54.783Z</time>
      </trkpt>
      <trkpt lat="44.6281" lon="0.83747">
        <ele>136.5</ele>
        <time>2021-10-01T09:38:48.874Z</time>
      </trkpt>
      <trkpt lat="44.62831" lon="0.83757">
        <ele>136.7</ele>
        <time>2021-10-01T09:38:42.972Z</time>
      </trkpt>
      <trkpt lat="44.62854" lon="0.83773">
        <ele>137.7</ele>
        <time>2021-10-01T09:38:37.074Z</time>
      </trkpt>
      <trkpt lat="44.62872" lon="0.83792">
        <ele>138.3</ele>
        <time>2021-10-01T09:38:31.181Z</time>
      </trkpt>
      <trkpt lat="44.62889" lon="0.83815">
        <ele>138.7</ele>
        <time>2021-10-01T09:38:25.293Z</time>
      </trkpt>
      <trkpt lat="44.62903" lon="0.83837">
        <ele>139.1</ele>
        <time>2021-10-01T09:38:19.410Z</time>
      </trkpt>
      <trkpt lat="44.62937" lon="0.83917">
        <ele>143.9</ele>
        <time>2021-10-01T09:38:13.531Z</time>
      </trkpt>
      <trkpt lat="44.62953" lon="0.83941">
        <ele>146</ele>
        <time>2021-10-01T09:38:07.665Z</time>
      </trkpt>
      <trkpt lat="44.63004" lon="0.83999">
        <ele>150.3</ele>
        <time>2021-10-01T09:38:01.804Z</time>
      </trkpt>
      <trkpt lat="44.63002" lon="0.84008">
        <ele>150.4</ele>
        <time>2021-10-01T09:37:50.109Z</time>
      </trkpt>
      <trkpt lat="44.62993" lon="0.8407">
        <ele>150.5</ele>
        <time>2021-10-01T09:37:44.262Z</time>
      </trkpt>
      <trkpt lat="44.6297" lon="0.8407">
        <ele>148.8</ele>
        <time>2021-10-01T09:37:38.424Z</time>
      </trkpt>
      <trkpt lat="44.62943" lon="0.84063">
        <ele>145.9</ele>
        <time>2021-10-01T09:37:32.591Z</time>
      </trkpt>
      <trkpt lat="44.62749" lon="0.84004">
        <ele>147.9</ele>
        <time>2021-10-01T09:37:26.764Z</time>
      </trkpt>
      <trkpt lat="44.62727" lon="0.84002">
        <ele>149.6</ele>
        <time>2021-10-01T09:37:20.976Z</time>
      </trkpt>
      <trkpt lat="44.62703" lon="0.84007">
        <ele>151.9</ele>
        <time>2021-10-01T09:37:15.193Z</time>
      </trkpt>
      <trkpt lat="44.62701" lon="0.84008">
        <ele>152.1</ele>
        <time>2021-10-01T09:37:09.414Z</time>
      </trkpt>
      <trkpt lat="44.62689" lon="0.84014">
        <ele>152.8</ele>
        <time>2021-10-01T09:36:57.860Z</time>
      </trkpt>
      <trkpt lat="44.62681" lon="0.84019">
        <ele>153.1</ele>
        <time>2021-10-01T09:36:52.084Z</time>
      </trkpt>
      <trkpt lat="44.62646" lon="0.84044">
        <ele>154</ele>
        <time>2021-10-01T09:36:46.310Z</time>
      </trkpt>
      <trkpt lat="44.62575" lon="0.84105">
        <ele>153.8</ele>
        <time>2021-10-01T09:36:40.544Z</time>
      </trkpt>
      <trkpt lat="44.62554" lon="0.84128">
        <ele>152.9</ele>
        <time>2021-10-01T09:36:29.051Z</time>
      </trkpt>
      <trkpt lat="44.62489" lon="0.84202">
        <ele>149.2</ele>
        <time>2021-10-01T09:36:23.307Z</time>
      </trkpt>
      <trkpt lat="44.62418" lon="0.84289">
        <ele>145.9</ele>
        <time>2021-10-01T09:36:17.580Z</time>
      </trkpt>
      <trkpt lat="44.62385" lon="0.8432">
        <ele>144.1</ele>
        <time>2021-10-01T09:36:11.872Z</time>
      </trkpt>
      <trkpt lat="44.62353" lon="0.84342">
        <ele>140.5</ele>
        <time>2021-10-01T09:36:00.479Z</time>
      </trkpt>
      <trkpt lat="44.62339" lon="0.84352">
        <ele>139.9</ele>
        <time>2021-10-01T09:35:54.786Z</time>
      </trkpt>
      <trkpt lat="44.62338" lon="0.84352">
        <ele>139.9</ele>
        <time>2021-10-01T09:35:43.406Z</time>
      </trkpt>
      <trkpt lat="44.62326" lon="0.84375">
        <ele>140.5</ele>
        <time>2021-10-01T09:35:37.716Z</time>
      </trkpt>
      <trkpt lat="44.62321" lon="0.84392">
        <ele>141.3</ele>
        <time>2021-10-01T09:35:32.030Z</time>
      </trkpt>
      <trkpt lat="44.62313" lon="0.84402">
        <ele>141.7</ele>
        <time>2021-10-01T09:35:26.347Z</time>
      </trkpt>
      <trkpt lat="44.62302" lon="0.84398">
        <ele>141.2</ele>
        <time>2021-10-01T09:35:20.666Z</time>
      </trkpt>
      <trkpt lat="44.6227" lon="0.84376">
        <ele>139.7</ele>
        <time>2021-10-01T09:35:14.987Z</time>
      </trkpt>
      <trkpt lat="44.62247" lon="0.84367">
        <ele>137.9</ele>
        <time>2021-10-01T09:35:09.315Z</time>
      </trkpt>
      <trkpt lat="44.62239" lon="0.84367">
        <ele>137.4</ele>
        <time>2021-10-01T09:35:03.648Z</time>
      </trkpt>
      <trkpt lat="44.6221" lon="0.84368">
        <ele>136.4</ele>
        <time>2021-10-01T09:34:57.983Z</time>
      </trkpt>
      <trkpt lat="44.62135" lon="0.84321">
        <ele>128.8</ele>
        <time>2021-10-01T09:34:52.323Z</time>
      </trkpt>
      <trkpt lat="44.62086" lon="0.84305">
        <ele>125.1</ele>
        <time>2021-10-01T09:34:46.680Z</time>
      </trkpt>
      <trkpt lat="44.62048" lon="0.84296">
        <ele>124.9</ele>
        <time>2021-10-01T09:34:41.047Z</time>
      </trkpt>
      <trkpt lat="44.62019" lon="0.84326">
        <ele>127.9</ele>
        <time>2021-10-01T09:34:29.804Z</time>
      </trkpt>
      <trkpt lat="44.61956" lon="0.84389">
        <ele>138.8</ele>
        <time>2021-10-01T09:34:24.186Z</time>
      </trkpt>
      <trkpt lat="44.61938" lon="0.84411">
        <ele>141.2</ele>
        <time>2021-10-01T09:34:18.583Z</time>
      </trkpt>
      <trkpt lat="44.6193" lon="0.84422">
        <ele>142.3</ele>
        <time>2021-10-01T09:34:12.985Z</time>
      </trkpt>
      <trkpt lat="44.61869" lon="0.84528">
        <ele>147.3</ele>
        <time>2021-10-01T09:34:07.389Z</time>
      </trkpt>
      <trkpt lat="44.6181" lon="0.8464">
        <ele>147.7</ele>
        <time>2021-10-01T09:34:01.813Z</time>
      </trkpt>
      <trkpt lat="44.61778" lon="0.84715">
        <ele>150.7</ele>
        <time>2021-10-01T09:33:50.713Z</time>
      </trkpt>
      <trkpt lat="44.6177" lon="0.84734">
        <ele>151.8</ele>
        <time>2021-10-01T09:33:45.169Z</time>
      </trkpt>
      <trkpt lat="44.6173" lon="0.84808">
        <ele>158.8</ele>
        <time>2021-10-01T09:33:39.628Z</time>
      </trkpt>
      <trkpt lat="44.61658" lon="0.84935">
        <ele>163.6</ele>
        <time>2021-10-01T09:33:34.101Z</time>
      </trkpt>
      <trkpt lat="44.61625" lon="0.85">
        <ele>166</ele>
        <time>2021-10-01T09:33:28.597Z</time>
      </trkpt>
      <trkpt lat="44.61619" lon="0.85015">
        <ele>166.4</ele>
        <time>2021-10-01T09:33:17.614Z</time>
      </trkpt>
      <trkpt lat="44.61576" lon="0.85115">
        <ele>168.5</ele>
        <time>2021-10-01T09:33:12.124Z</time>
      </trkpt>
      <trkpt lat="44.6157" lon="0.85127">
        <ele>169</ele>
        <time>2021-10-01T09:33:06.650Z</time>
      </trkpt>
      <trkpt lat="44.61554" lon="0.85164">
        <ele>170.1</ele>
        <time>2021-10-01T09:33:01.178Z</time>
      </trkpt>
      <trkpt lat="44.61537" lon="0.85186">
        <ele>171.6</ele>
        <time>2021-10-01T09:32:55.713Z</time>
      </trkpt>
      <trkpt lat="44.61508" lon="0.85216">
        <ele>173.4</ele>
        <time>2021-10-01T09:32:50.252Z</time>
      </trkpt>
      <trkpt lat="44.61491" lon="0.85247">
        <ele>173.7</ele>
        <time>2021-10-01T09:32:44.798Z</time>
      </trkpt>
      <trkpt lat="44.61481" lon="0.85272">
        <ele>174.1</ele>
        <time>2021-10-01T09:32:33.906Z</time>
      </trkpt>
      <trkpt lat="44.61479" lon="0.85278">
        <ele>174.2</ele>
        <time>2021-10-01T09:32:28.462Z</time>
      </trkpt>
      <trkpt lat="44.61474" lon="0.85301">
        <ele>172.3</ele>
        <time>2021-10-01T09:32:23.019Z</time>
      </trkpt>
      <trkpt lat="44.61454" lon="0.85399">
        <ele>168.3</ele>
        <time>2021-10-01T09:32:12.154Z</time>
      </trkpt>
      <trkpt lat="44.6143" lon="0.85522">
        <ele>159.1</ele>
        <time>2021-10-01T09:32:06.729Z</time>
      </trkpt>
      <trkpt lat="44.61428" lon="0.85555">
        <ele>161.5</ele>
        <time>2021-10-01T09:32:01.322Z</time>
      </trkpt>
      <trkpt lat="44.6143" lon="0.85601">
        <ele>164.3</ele>
        <time>2021-10-01T09:31:55.920Z</time>
      </trkpt>
      <trkpt lat="44.61423" lon="0.85628">
        <ele>165.7</ele>
        <time>2021-10-01T09:31:50.525Z</time>
      </trkpt>
      <trkpt lat="44.61403" lon="0.85688">
        <ele>169.1</ele>
        <time>2021-10-01T09:31:45.134Z</time>
      </trkpt>
      <trkpt lat="44.61397" lon="0.85728">
        <ele>171.9</ele>
        <time>2021-10-01T09:31:39.752Z</time>
      </trkpt>
      <trkpt lat="44.61399" lon="0.85741">
        <ele>172.1</ele>
        <time>2021-10-01T09:31:34.376Z</time>
      </trkpt>
      <trkpt lat="44.61388" lon="0.85747">
        <ele>172.9</ele>
        <time>2021-10-01T09:31:29.002Z</time>
      </trkpt>
      <trkpt lat="44.61374" lon="0.85763">
        <ele>172.6</ele>
        <time>2021-10-01T09:31:23.630Z</time>
      </trkpt>
      <trkpt lat="44.61354" lon="0.85791">
        <ele>172.3</ele>
        <time>2021-10-01T09:31:18.262Z</time>
      </trkpt>
      <trkpt lat="44.61341" lon="0.85815">
        <ele>172.6</ele>
        <time>2021-10-01T09:31:12.899Z</time>
      </trkpt>
      <trkpt lat="44.6132" lon="0.85862">
        <ele>171</ele>
        <time>2021-10-01T09:31:07.541Z</time>
      </trkpt>
      <trkpt lat="44.61301" lon="0.85939">
        <ele>173.3</ele>
        <time>2021-10-01T09:30:56.852Z</time>
      </trkpt>
      <trkpt lat="44.61289" lon="0.85986">
        <ele>172.6</ele>
        <time>2021-10-01T09:30:51.513Z</time>
      </trkpt>
      <trkpt lat="44.61282" lon="0.86006">
        <ele>173.7</ele>
        <time>2021-10-01T09:30:46.181Z</time>
      </trkpt>
      <trkpt lat="44.61237" lon="0.86067">
        <ele>178.1</ele>
        <time>2021-10-01T09:30:40.853Z</time>
      </trkpt>
      <trkpt lat="44.61226" lon="0.86089">
        <ele>179.2</ele>
        <time>2021-10-01T09:30:35.537Z</time>
      </trkpt>
      <trkpt lat="44.61202" lon="0.86157">
        <ele>181.3</ele>
        <time>2021-10-01T09:30:30.225Z</time>
      </trkpt>
      <trkpt lat="44.61199" lon="0.86179">
        <ele>181.6</ele>
        <time>2021-10-01T09:30:24.924Z</time>
      </trkpt>
      <trkpt lat="44.61201" lon="0.86258">
        <ele>181.5</ele>
        <time>2021-10-01T09:30:19.626Z</time>
      </trkpt>
      <trkpt lat="44.61201" lon="0.86269">
        <ele>181.5</ele>
        <time>2021-10-01T09:30:14.339Z</time>
      </trkpt>
      <trkpt lat="44.61184" lon="0.86345">
        <ele>182.2</ele>
        <time>2021-10-01T09:30:09.054Z</time>
      </trkpt>
      <trkpt lat="44.61244" lon="0.86408">
        <ele>183.5</ele>
        <time>2021-10-01T09:30:03.780Z</time>
      </trkpt>
      <trkpt lat="44.6123" lon="0.86428">
        <ele>183.7</ele>
        <time>2021-10-01T09:29:58.521Z</time>
      </trkpt>
      <trkpt lat="44.61165" lon="0.86523">
        <ele>185</ele>
        <time>2021-10-01T09:29:53.266Z</time>
      </trkpt>
      <trkpt lat="44.61144" lon="0.86551">
        <ele>184.2</ele>
        <time>2021-10-01T09:29:48.030Z</time>
      </trkpt>
      <trkpt lat="44.61123" lon="0.86596">
        <ele>182.5</ele>
        <time>2021-10-01T09:29:42.800Z</time>
      </trkpt>
      <trkpt lat="44.61103" lon="0.86615">
        <ele>182.4</ele>
        <time>2021-10-01T09:29:37.577Z</time>
      </trkpt>
      <trkpt lat="44.6105" lon="0.86632">
        <ele>183.1</ele>
        <time>2021-10-01T09:29:32.359Z</time>
      </trkpt>
      <trkpt lat="44.61002" lon="0.86662">
        <ele>183</ele>
        <time>2021-10-01T09:29:27.152Z</time>
      </trkpt>
      <trkpt lat="44.60965" lon="0.86692">
        <ele>182.4</ele>
        <time>2021-10-01T09:29:21.956Z</time>
      </trkpt>
      <trkpt lat="44.60952" lon="0.86701">
        <ele>182.1</ele>
        <time>2021-10-01T09:29:16.768Z</time>
      </trkpt>
      <trkpt lat="44.60891" lon="0.86728">
        <ele>184.5</ele>
        <time>2021-10-01T09:29:11.583Z</time>
      </trkpt>
      <trkpt lat="44.60883" lon="0.86733">
        <ele>185.4</ele>
        <time>2021-10-01T09:29:06.411Z</time>
      </trkpt>
      <trkpt lat="44.6087" lon="0.86747">
        <ele>186.2</ele>
        <time>2021-10-01T09:29:01.241Z</time>
      </trkpt>
      <trkpt lat="44.60849" lon="0.86806">
        <ele>188</ele>
        <time>2021-10-01T09:28:56.074Z</time>
      </trkpt>
      <trkpt lat="44.60833" lon="0.86786">
        <ele>189.4</ele>
        <time>2021-10-01T09:28:50.916Z</time>
      </trkpt>
      <trkpt lat="44.60772" lon="0.86762">
        <ele>187.9</ele>
        <time>2021-10-01T09:28:45.763Z</time>
      </trkpt>
      <trkpt lat="44.60727" lon="0.86735">
        <ele>185.2</ele>
        <time>2021-10-01T09:28:35.491Z</time>
      </trkpt>
      <trkpt lat="44.60722" lon="0.86732">
        <ele>184.7</ele>
        <time>2021-10-01T09:28:30.360Z</time>
      </trkpt>
      <trkpt lat="44.60686" lon="0.86702">
        <ele>183.5</ele>
        <time>2021-10-01T09:28:25.230Z</time>
      </trkpt>
      <trkpt lat="44.6066" lon="0.86686">
        <ele>182.2</ele>
        <time>2021-10-01T09:28:20.109Z</time>
      </trkpt>
      <trkpt lat="44.60608" lon="0.86678">
        <ele>177.1</ele>
        <time>2021-10-01T09:28:14.994Z</time>
      </trkpt>
      <trkpt lat="44.60576" lon="0.86671">
        <ele>173.5</ele>
        <time>2021-10-01T09:28:09.889Z</time>
      </trkpt>
      <trkpt lat="44.60523" lon="0.86654">
        <ele>167.9</ele>
        <time>2021-10-01T09:28:04.790Z</time>
      </trkpt>
      <trkpt lat="44.60514" lon="0.86653">
        <ele>167.7</ele>
        <time>2021-10-01T09:27:59.702Z</time>
      </trkpt>
      <trkpt lat="44.605" lon="0.8667">
        <ele>166.1</ele>
        <time>2021-10-01T09:27:54.616Z</time>
      </trkpt>
      <trkpt lat="44.6047" lon="0.8672">
        <ele>165</ele>
        <time>2021-10-01T09:27:49.534Z</time>
      </trkpt>
      <trkpt lat="44.60449" lon="0.86738">
        <ele>164.3</ele>
        <time>2021-10-01T09:27:44.461Z</time>
      </trkpt>
      <trkpt lat="44.60434" lon="0.86749">
        <ele>163.6</ele>
        <time>2021-10-01T09:27:34.329Z</time>
      </trkpt>
      <trkpt lat="44.60425" lon="0.86754">
        <ele>163.3</ele>
        <time>2021-10-01T09:27:29.265Z</time>
      </trkpt>
      <trkpt lat="44.60392" lon="0.86754">
        <ele>162.2</ele>
        <time>2021-10-01T09:27:24.203Z</time>
      </trkpt>
      <trkpt lat="44.60326" lon="0.86745">
        <ele>160.3</ele>
        <time>2021-10-01T09:27:19.147Z</time>
      </trkpt>
      <trkpt lat="44.60313" lon="0.86754">
        <ele>160.2</ele>
        <time>2021-10-01T09:27:14.104Z</time>
      </trkpt>
      <trkpt lat="44.60311" lon="0.86838">
        <ele>166.3</ele>
        <time>2021-10-01T09:27:09.064Z</time>
      </trkpt>
      <trkpt lat="44.6032" lon="0.86921">
        <ele>173.7</ele>
        <time>2021-10-01T09:27:04.036Z</time>
      </trkpt>
      <trkpt lat="44.60317" lon="0.86958">
        <ele>175.5</ele>
        <time>2021-10-01T09:26:59.020Z</time>
      </trkpt>
      <trkpt lat="44.60287" lon="0.86973">
        <ele>176.3</ele>
        <time>2021-10-01T09:26:54.010Z</time>
      </trkpt>
      <trkpt lat="44.60268" lon="0.86989">
        <ele>174.4</ele>
        <time>2021-10-01T09:26:49.006Z</time>
      </trkpt>
      <trkpt lat="44.60264" lon="0.87007">
        <ele>172.9</ele>
        <time>2021-10-01T09:26:39.009Z</time>
      </trkpt>
      <trkpt lat="44.60261" lon="0.87013">
        <ele>172.2</ele>
        <time>2021-10-01T09:26:34.012Z</time>
      </trkpt>
      <trkpt lat="44.60196" lon="0.87044">
        <ele>165.3</ele>
        <time>2021-10-01T09:26:29.016Z</time>
      </trkpt>
      <trkpt lat="44.60182" lon="0.87054">
        <ele>165.1</ele>
        <time>2021-10-01T09:26:24.034Z</time>
      </trkpt>
      <trkpt lat="44.6017" lon="0.87068">
        <ele>164</ele>
        <time>2021-10-01T09:26:19.055Z</time>
      </trkpt>
      <trkpt lat="44.6012" lon="0.87083">
        <ele>165.4</ele>
        <time>2021-10-01T09:26:09.113Z</time>
      </trkpt>
      <trkpt lat="44.60019" lon="0.87113">
        <ele>155.9</ele>
        <time>2021-10-01T09:26:04.147Z</time>
      </trkpt>
      <trkpt lat="44.60024" lon="0.87146">
        <ele>154.8</ele>
        <time>2021-10-01T09:25:59.202Z</time>
      </trkpt>
      <trkpt lat="44.60031" lon="0.87211">
        <ele>153.9</ele>
        <time>2021-10-01T09:25:54.262Z</time>
      </trkpt>
      <trkpt lat="44.60031" lon="0.87244">
        <ele>153.9</ele>
        <time>2021-10-01T09:25:44.405Z</time>
      </trkpt>
      <trkpt lat="44.60032" lon="0.87278">
        <ele>155</ele>
        <time>2021-10-01T09:25:39.479Z</time>
      </trkpt>
      <trkpt lat="44.60038" lon="0.87303">
        <ele>158</ele>
        <time>2021-10-01T09:25:34.558Z</time>
      </trkpt>
      <trkpt lat="44.60013" lon="0.87297">
        <ele>159</ele>
        <time>2021-10-01T09:25:29.641Z</time>
      </trkpt>
      <trkpt lat="44.60008" lon="0.87296">
        <ele>159.3</ele>
        <time>2021-10-01T09:25:24.729Z</time>
      </trkpt>
      <trkpt lat="44.59995" lon="0.87287">
        <ele>160</ele>
        <time>2021-10-01T09:25:19.818Z</time>
      </trkpt>
      <trkpt lat="44.59977" lon="0.87272">
        <ele>162.4</ele>
        <time>2021-10-01T09:25:14.910Z</time>
      </trkpt>
      <trkpt lat="44.59951" lon="0.87229">
        <ele>164.5</ele>
        <time>2021-10-01T09:25:10.006Z</time>
      </trkpt>
      <trkpt lat="44.59913" lon="0.87193">
        <ele>164.7</ele>
        <time>2021-10-01T09:25:05.110Z</time>
      </trkpt>
      <trkpt lat="44.59892" lon="0.87188">
        <ele>164</ele>
        <time>2021-10-01T09:25:00.223Z</time>
      </trkpt>
      <trkpt lat="44.59877" lon="0.87193">
        <ele>164.8</ele>
        <time>2021-10-01T09:24:55.340Z</time>
      </trkpt>
      <trkpt lat="44.59869" lon="0.87204">
        <ele>165.5</ele>
        <time>2021-10-01T09:24:45.583Z</time>
      </trkpt>
      <trkpt lat="44.59855" lon="0.87222">
        <ele>165.6</ele>
        <time>2021-10-01T09:24:40.706Z</time>
      </trkpt>
      <trkpt lat="44.59824" lon="0.87279">
        <ele>166.3</ele>
        <time>2021-10-01T09:24:35.832Z</time>
      </trkpt>
      <trkpt lat="44.598" lon="0.87309">
        <ele>167.9</ele>
        <time>2021-10-01T09:24:30.969Z</time>
      </trkpt>
      <trkpt lat="44.59788" lon="0.87331">
        <ele>169.3</ele>
        <time>2021-10-01T09:24:26.112Z</time>
      </trkpt>
      <trkpt lat="44.59729" lon="0.87425">
        <ele>175.4</ele>
        <time>2021-10-01T09:24:21.259Z</time>
      </trkpt>
      <trkpt lat="44.59723" lon="0.87433">
        <ele>175.7</ele>
        <time>2021-10-01T09:24:16.424Z</time>
      </trkpt>
      <trkpt lat="44.5964" lon="0.87534">
        <ele>183</ele>
        <time>2021-10-01T09:24:11.591Z</time>
      </trkpt>
      <trkpt lat="44.59588" lon="0.87682">
        <ele>189.3</ele>
        <time>2021-10-01T09:24:06.780Z</time>
      </trkpt>
      <trkpt lat="44.59577" lon="0.87704">
        <ele>189.2</ele>
        <time>2021-10-01T09:24:01.992Z</time>
      </trkpt>
      <trkpt lat="44.59562" lon="0.87702">
        <ele>188</ele>
        <time>2021-10-01T09:23:57.208Z</time>
      </trkpt>
      <trkpt lat="44.59493" lon="0.87623">
        <ele>185.3</ele>
        <time>2021-10-01T09:23:52.427Z</time>
      </trkpt>
      <trkpt lat="44.59487" lon="0.87633">
        <ele>185.4</ele>
        <time>2021-10-01T09:23:42.903Z</time>
      </trkpt>
      <trkpt lat="44.594" lon="0.87776">
        <ele>192.9</ele>
        <time>2021-10-01T09:23:38.142Z</time>
      </trkpt>
      <trkpt lat="44.5938" lon="0.87802">
        <ele>194.5</ele>
        <time>2021-10-01T09:23:33.407Z</time>
      </trkpt>
      <trkpt lat="44.59366" lon="0.87819">
        <ele>195.7</ele>
        <time>2021-10-01T09:23:28.678Z</time>
      </trkpt>
      <trkpt lat="44.59326" lon="0.87839">
        <ele>196.9</ele>
        <time>2021-10-01T09:23:19.236Z</time>
      </trkpt>
      <trkpt lat="44.59313" lon="0.87846">
        <ele>196.7</ele>
        <time>2021-10-01T09:23:14.519Z</time>
      </trkpt>
      <trkpt lat="44.59297" lon="0.87858">
        <ele>195.5</ele>
        <time>2021-10-01T09:23:09.805Z</time>
      </trkpt>
      <trkpt lat="44.59256" lon="0.87906">
        <ele>190.9</ele>
        <time>2021-10-01T09:23:00.395Z</time>
      </trkpt>
      <trkpt lat="44.59248" lon="0.87915">
        <ele>189.7</ele>
        <time>2021-10-01T09:22:55.695Z</time>
      </trkpt>
      <trkpt lat="44.59234" lon="0.87947">
        <ele>187.2</ele>
        <time>2021-10-01T09:22:50.997Z</time>
      </trkpt>
      <trkpt lat="44.59178" lon="0.88015">
        <ele>180.6</ele>
        <time>2021-10-01T09:22:46.305Z</time>
      </trkpt>
      <trkpt lat="44.59139" lon="0.88079">
        <ele>175.2</ele>
        <time>2021-10-01T09:22:41.627Z</time>
      </trkpt>
      <trkpt lat="44.59108" lon="0.88137">
        <ele>171</ele>
        <time>2021-10-01T09:22:36.961Z</time>
      </trkpt>
      <trkpt lat="44.59089" lon="0.88155">
        <ele>169.2</ele>
        <time>2021-10-01T09:22:32.306Z</time>
      </trkpt>
      <trkpt lat="44.59072" lon="0.88158">
        <ele>167.8</ele>
        <time>2021-10-01T09:22:27.655Z</time>
      </trkpt>
      <trkpt lat="44.59056" lon="0.88147">
        <ele>167.4</ele>
        <time>2021-10-01T09:22:23.008Z</time>
      </trkpt>
      <trkpt lat="44.59035" lon="0.8812">
        <ele>168.6</ele>
        <time>2021-10-01T09:22:18.364Z</time>
      </trkpt>
      <trkpt lat="44.59032" lon="0.88125">
        <ele>168.2</ele>
        <time>2021-10-01T09:22:13.726Z</time>
      </trkpt>
      <trkpt lat="44.59028" lon="0.8813">
        <ele>167.6</ele>
        <time>2021-10-01T09:22:09.089Z</time>
      </trkpt>
      <trkpt lat="44.58995" lon="0.88158">
        <ele>164.1</ele>
        <time>2021-10-01T09:22:04.453Z</time>
      </trkpt>
      <trkpt lat="44.58986" lon="0.88168">
        <ele>162.4</ele>
        <time>2021-10-01T09:21:55.199Z</time>
      </trkpt>
      <trkpt lat="44.58983" lon="0.88172">
        <ele>161.9</ele>
        <time>2021-10-01T09:21:50.573Z</time>
      </trkpt>
      <trkpt lat="44.58997" lon="0.88185">
        <ele>162.4</ele>
        <time>2021-10-01T09:21:45.948Z</time>
      </trkpt>
      <trkpt lat="44.59023" lon="0.88215">
        <ele>161</ele>
        <time>2021-10-01T09:21:41.326Z</time>
      </trkpt>
      <trkpt lat="44.59024" lon="0.88217">
        <ele>160.7</ele>
        <time>2021-10-01T09:21:32.096Z</time>
      </trkpt>
      <trkpt lat="44.59026" lon="0.88231">
        <ele>159</ele>
        <time>2021-10-01T09:21:27.481Z</time>
      </trkpt>
      <trkpt lat="44.59023" lon="0.88247">
        <ele>157</ele>
        <time>2021-10-01T09:21:22.868Z</time>
      </trkpt>
      <trkpt lat="44.5902" lon="0.88253">
        <ele>155.9</ele>
        <time>2021-10-01T09:21:18.258Z</time>
      </trkpt>
      <trkpt lat="44.59015" lon="0.88256">
        <ele>155</ele>
        <time>2021-10-01T09:21:13.649Z</time>
      </trkpt>
      <trkpt lat="44.58962" lon="0.88266">
        <ele>148.7</ele>
        <time>2021-10-01T09:21:09.041Z</time>
      </trkpt>
      <trkpt lat="44.58942" lon="0.88269">
        <ele>147</ele>
        <time>2021-10-01T09:21:04.444Z</time>
      </trkpt>
      <trkpt lat="44.58915" lon="0.88287">
        <ele>147</ele>
        <time>2021-10-01T09:20:59.851Z</time>
      </trkpt>
      <trkpt lat="44.58909" lon="0.88297">
        <ele>147.2</ele>
        <time>2021-10-01T09:20:55.264Z</time>
      </trkpt>
      <trkpt lat="44.58904" lon="0.88305">
        <ele>147.4</ele>
        <time>2021-10-01T09:20:50.679Z</time>
      </trkpt>
      <trkpt lat="44.58891" lon="0.88328">
        <ele>148.7</ele>
        <time>2021-10-01T09:20:46.095Z</time>
      </trkpt>
      <trkpt lat="44.58883" lon="0.88339">
        <ele>149.6</ele>
        <time>2021-10-01T09:20:36.938Z</time>
      </trkpt>
      <trkpt lat="44.58862" lon="0.88366">
        <ele>152.7</ele>
        <time>2021-10-01T09:20:32.361Z</time>
      </trkpt>
      <trkpt lat="44.58854" lon="0.88377">
        <ele>154</ele>
        <time>2021-10-01T09:20:27.789Z</time>
      </trkpt>
      <trkpt lat="44.58818" lon="0.88444">
        <ele>158.8</ele>
        <time>2021-10-01T09:20:23.220Z</time>
      </trkpt>
      <trkpt lat="44.588" lon="0.88516">
        <ele>161.1</ele>
        <time>2021-10-01T09:20:18.663Z</time>
      </trkpt>
      <trkpt lat="44.58732" lon="0.88615">
        <ele>167.9</ele>
        <time>2021-10-01T09:20:14.116Z</time>
      </trkpt>
      <trkpt lat="44.58692" lon="0.88668">
        <ele>173.3</ele>
        <time>2021-10-01T09:20:09.589Z</time>
      </trkpt>
      <trkpt lat="44.5869" lon="0.88675">
        <ele>173.2</ele>
        <time>2021-10-01T09:20:05.073Z</time>
      </trkpt>
      <trkpt lat="44.58682" lon="0.88699">
        <ele>173.7</ele>
        <time>2021-10-01T09:20:00.558Z</time>
      </trkpt>
      <trkpt lat="44.58678" lon="0.88707">
        <ele>174.6</ele>
        <time>2021-10-01T09:19:56.047Z</time>
      </trkpt>
      <trkpt lat="44.5862" lon="0.88808">
        <ele>182.4</ele>
        <time>2021-10-01T09:19:51.537Z</time>
      </trkpt>
      <trkpt lat="44.58565" lon="0.88952">
        <ele>192.9</ele>
        <time>2021-10-01T09:19:47.046Z</time>
      </trkpt>
      <trkpt lat="44.58546" lon="0.88977">
        <ele>194</ele>
        <time>2021-10-01T09:19:38.115Z</time>
      </trkpt>
      <trkpt lat="44.58441" lon="0.88903">
        <ele>198.2</ele>
        <time>2021-10-01T09:19:33.652Z</time>
      </trkpt>
      <trkpt lat="44.58421" lon="0.88894">
        <ele>198.9</ele>
        <time>2021-10-01T09:19:29.213Z</time>
      </trkpt>
      <trkpt lat="44.5838" lon="0.88852">
        <ele>201.4</ele>
        <time>2021-10-01T09:19:24.778Z</time>
      </trkpt>
      <trkpt lat="44.58346" lon="0.88833">
        <ele>204.1</ele>
        <time>2021-10-01T09:19:20.353Z</time>
      </trkpt>
      <trkpt lat="44.58331" lon="0.88824">
        <ele>204.8</ele>
        <time>2021-10-01T09:19:15.936Z</time>
      </trkpt>
      <trkpt lat="44.58314" lon="0.88819">
        <ele>205.9</ele>
        <time>2021-10-01T09:19:07.111Z</time>
      </trkpt>
      <trkpt lat="44.58222" lon="0.88789">
        <ele>209.6</ele>
        <time>2021-10-01T09:19:02.700Z</time>
      </trkpt>
      <trkpt lat="44.58135" lon="0.88734">
        <ele>212.9</ele>
        <time>2021-10-01T09:18:58.308Z</time>
      </trkpt>
      <trkpt lat="44.58068" lon="0.88646">
        <ele>210.8</ele>
        <time>2021-10-01T09:18:53.935Z</time>
      </trkpt>
      <trkpt lat="44.58014" lon="0.88587">
        <ele>214.4</ele>
        <time>2021-10-01T09:18:49.581Z</time>
      </trkpt>
      <trkpt lat="44.57958" lon="0.88557">
        <ele>211.6</ele>
        <time>2021-10-01T09:18:40.911Z</time>
      </trkpt>
      <trkpt lat="44.57957" lon="0.88557">
        <ele>211.5</ele>
        <time>2021-10-01T09:18:36.582Z</time>
      </trkpt>
      <trkpt lat="44.57926" lon="0.88553">
        <ele>207.8</ele>
        <time>2021-10-01T09:18:32.254Z</time>
      </trkpt>
      <trkpt lat="44.579" lon="0.88556">
        <ele>207.7</ele>
        <time>2021-10-01T09:18:27.932Z</time>
      </trkpt>
      <trkpt lat="44.57856" lon="0.88515">
        <ele>207.2</ele>
        <time>2021-10-01T09:18:23.615Z</time>
      </trkpt>
      <trkpt lat="44.57835" lon="0.88498">
        <ele>204.7</ele>
        <time>2021-10-01T09:18:19.309Z</time>
      </trkpt>
      <trkpt lat="44.57798" lon="0.88502">
        <ele>205.5</ele>
        <time>2021-10-01T09:18:15.008Z</time>
      </trkpt>
      <trkpt lat="44.5777" lon="0.88516">
        <ele>206.6</ele>
        <time>2021-10-01T09:18:10.714Z</time>
      </trkpt>
      <trkpt lat="44.57713" lon="0.88548">
        <ele>204.1</ele>
        <time>2021-10-01T09:18:06.426Z</time>
      </trkpt>
      <trkpt lat="44.57668" lon="0.88553">
        <ele>202</ele>
        <time>2021-10-01T09:18:02.150Z</time>
      </trkpt>
      <trkpt lat="44.57503" lon="0.88555">
        <ele>203.2</ele>
        <time>2021-10-01T09:17:49.415Z</time>
      </trkpt>
      <trkpt lat="44.57472" lon="0.88568">
        <ele>202.3</ele>
        <time>2021-10-01T09:17:45.181Z</time>
      </trkpt>
      <trkpt lat="44.574" lon="0.88623">
        <ele>198.8</ele>
        <time>2021-10-01T09:17:40.954Z</time>
      </trkpt>
      <trkpt lat="44.57271" lon="0.88681">
        <ele>186.3</ele>
        <time>2021-10-01T09:17:36.743Z</time>
      </trkpt>
      <trkpt lat="44.57232" lon="0.88699">
        <ele>185.1</ele>
        <time>2021-10-01T09:17:32.559Z</time>
      </trkpt>
      <trkpt lat="44.57206" lon="0.88752">
        <ele>184.4</ele>
        <time>2021-10-01T09:17:28.383Z</time>
      </trkpt>
      <trkpt lat="44.57151" lon="0.88821">
        <ele>183.4</ele>
        <time>2021-10-01T09:17:24.217Z</time>
      </trkpt>
      <trkpt lat="44.5708" lon="0.88868">
        <ele>181</ele>
        <time>2021-10-01T09:17:20.065Z</time>
      </trkpt>
      <trkpt lat="44.57077" lon="0.88873">
        <ele>180.5</ele>
        <time>2021-10-01T09:17:11.794Z</time>
      </trkpt>
      <trkpt lat="44.57016" lon="0.88954">
        <ele>181.7</ele>
        <time>2021-10-01T09:17:07.659Z</time>
      </trkpt>
      <trkpt lat="44.56939" lon="0.89014">
        <ele>181.5</ele>
        <time>2021-10-01T09:17:03.541Z</time>
      </trkpt>
      <trkpt lat="44.56916" lon="0.89034">
        <ele>180.7</ele>
        <time>2021-10-01T09:16:59.441Z</time>
      </trkpt>
      <trkpt lat="44.56898" lon="0.89036">
        <ele>179.3</ele>
        <time>2021-10-01T09:16:55.346Z</time>
      </trkpt>
      <trkpt lat="44.56885" lon="0.89043">
        <ele>178.9</ele>
        <time>2021-10-01T09:16:51.255Z</time>
      </trkpt>
      <trkpt lat="44.56855" lon="0.89044">
        <ele>177.9</ele>
        <time>2021-10-01T09:16:47.166Z</time>
      </trkpt>
      <trkpt lat="44.56836" lon="0.89054">
        <ele>178.9</ele>
        <time>2021-10-01T09:16:43.083Z</time>
      </trkpt>
      <trkpt lat="44.56821" lon="0.89073">
        <ele>176.4</ele>
        <time>2021-10-01T09:16:34.930Z</time>
      </trkpt>
      <trkpt lat="44.56734" lon="0.89093">
        <ele>182.4</ele>
        <time>2021-10-01T09:16:26.799Z</time>
      </trkpt>
      <trkpt lat="44.56694" lon="0.89102">
        <ele>185.3</ele>
        <time>2021-10-01T09:16:22.742Z</time>
      </trkpt>
      <trkpt lat="44.56621" lon="0.89123">
        <ele>187.5</ele>
        <time>2021-10-01T09:16:18.693Z</time>
      </trkpt>
      <trkpt lat="44.56609" lon="0.89124">
        <ele>188.1</ele>
        <time>2021-10-01T09:16:14.659Z</time>
      </trkpt>
      <trkpt lat="44.56591" lon="0.89122">
        <ele>188.7</ele>
        <time>2021-10-01T09:16:10.627Z</time>
      </trkpt>
      <trkpt lat="44.56532" lon="0.89105">
        <ele>190.8</ele>
        <time>2021-10-01T09:16:06.599Z</time>
      </trkpt>
      <trkpt lat="44.56519" lon="0.89103">
        <ele>190.2</ele>
        <time>2021-10-01T09:16:02.583Z</time>
      </trkpt>
      <trkpt lat="44.56495" lon="0.89106">
        <ele>188.3</ele>
        <time>2021-10-01T09:15:58.570Z</time>
      </trkpt>
      <trkpt lat="44.56484" lon="0.89103">
        <ele>188.1</ele>
        <time>2021-10-01T09:15:50.556Z</time>
      </trkpt>
      <trkpt lat="44.56462" lon="0.89117">
        <ele>184.1</ele>
        <time>2021-10-01T09:15:46.550Z</time>
      </trkpt>
      <trkpt lat="44.56454" lon="0.89121">
        <ele>182.3</ele>
        <time>2021-10-01T09:15:42.549Z</time>
      </trkpt>
      <trkpt lat="44.56448" lon="0.89121">
        <ele>181.8</ele>
        <time>2021-10-01T09:15:38.549Z</time>
      </trkpt>
      <trkpt lat="44.56438" lon="0.89116">
        <ele>181.6</ele>
        <time>2021-10-01T09:15:34.551Z</time>
      </trkpt>
      <trkpt lat="44.56407" lon="0.89086">
        <ele>179.2</ele>
        <time>2021-10-01T09:15:30.555Z</time>
      </trkpt>
      <trkpt lat="44.56419" lon="0.89114">
        <ele>178.8</ele>
        <time>2021-10-01T09:15:26.566Z</time>
      </trkpt>
      <trkpt lat="44.56429" lon="0.89125">
        <ele>178</ele>
        <time>2021-10-01T09:15:18.601Z</time>
      </trkpt>
      <trkpt lat="44.56419" lon="0.89114">
        <ele>178.8</ele>
        <time>2021-10-01T09:15:14.620Z</time>
      </trkpt>
      <trkpt lat="44.56407" lon="0.89086">
        <ele>179.2</ele>
        <time>2021-10-01T09:15:10.641Z</time>
      </trkpt>
      <trkpt lat="44.56396" lon="0.89079">
        <ele>177.6</ele>
        <time>2021-10-01T09:15:06.667Z</time>
      </trkpt>
      <trkpt lat="44.56208" lon="0.89034">
        <ele>156.9</ele>
        <time>2021-10-01T09:15:02.695Z</time>
      </trkpt>
      <trkpt lat="44.56195" lon="0.89039">
        <ele>153.1</ele>
        <time>2021-10-01T09:14:58.761Z</time>
      </trkpt>
      <trkpt lat="44.56178" lon="0.89045">
        <ele>150.1</ele>
        <time>2021-10-01T09:14:54.830Z</time>
      </trkpt>
      <trkpt lat="44.5617" lon="0.89045">
        <ele>149.2</ele>
        <time>2021-10-01T09:14:50.902Z</time>
      </trkpt>
      <trkpt lat="44.56169" lon="0.89045">
        <ele>149.1</ele>
        <time>2021-10-01T09:14:46.976Z</time>
      </trkpt>
      <trkpt lat="44.56154" lon="0.89041">
        <ele>152.7</ele>
        <time>2021-10-01T09:14:43.050Z</time>
      </trkpt>
      <trkpt lat="44.56146" lon="0.89007">
        <ele>149.4</ele>
        <time>2021-10-01T09:14:39.127Z</time>
      </trkpt>
      <trkpt lat="44.56138" lon="0.88989">
        <ele>146.9</ele>
        <time>2021-10-01T09:14:35.209Z</time>
      </trkpt>
      <trkpt lat="44.5613" lon="0.88977">
        <ele>146.1</ele>
        <time>2021-10-01T09:14:31.294Z</time>
      </trkpt>
      <trkpt lat="44.56114" lon="0.88964">
        <ele>146.2</ele>
        <time>2021-10-01T09:14:27.382Z</time>
      </trkpt>
      <trkpt lat="44.56087" lon="0.88947">
        <ele>143.1</ele>
        <time>2021-10-01T09:14:23.473Z</time>
      </trkpt>
      <trkpt lat="44.56068" lon="0.88931">
        <ele>141.6</ele>
        <time>2021-10-01T09:14:19.570Z</time>
      </trkpt>
      <trkpt lat="44.5605" lon="0.88915">
        <ele>138.6</ele>
        <time>2021-10-01T09:14:15.672Z</time>
      </trkpt>
      <trkpt lat="44.56023" lon="0.88889">
        <ele>134.6</ele>
        <time>2021-10-01T09:14:04.004Z</time>
      </trkpt>
      <trkpt lat="44.55997" lon="0.88854">
        <ele>132.9</ele>
        <time>2021-10-01T09:14:00.117Z</time>
      </trkpt>
      <trkpt lat="44.55989" lon="0.88839">
        <ele>133.4</ele>
        <time>2021-10-01T09:13:56.237Z</time>
      </trkpt>
      <trkpt lat="44.55981" lon="0.88815">
        <ele>129.8</ele>
        <time>2021-10-01T09:13:52.359Z</time>
      </trkpt>
      <trkpt lat="44.55974" lon="0.88775">
        <ele>125</ele>
        <time>2021-10-01T09:13:48.485Z</time>
      </trkpt>
      <trkpt lat="44.55974" lon="0.8876">
        <ele>124.4</ele>
        <time>2021-10-01T09:13:44.617Z</time>
      </trkpt>
      <trkpt lat="44.55979" lon="0.88741">
        <ele>123.8</ele>
        <time>2021-10-01T09:13:40.751Z</time>
      </trkpt>
      <trkpt lat="44.55994" lon="0.88709">
        <ele>122</ele>
        <time>2021-10-01T09:13:36.888Z</time>
      </trkpt>
      <trkpt lat="44.56" lon="0.88691">
        <ele>120.1</ele>
        <time>2021-10-01T09:13:33.031Z</time>
      </trkpt>
      <trkpt lat="44.56006" lon="0.88667">
        <ele>120.3</ele>
        <time>2021-10-01T09:13:29.176Z</time>
      </trkpt>
      <trkpt lat="44.56006" lon="0.88638">
        <ele>119.4</ele>
        <time>2021-10-01T09:13:25.325Z</time>
      </trkpt>
      <trkpt lat="44.56007" lon="0.88624">
        <ele>119.8</ele>
        <time>2021-10-01T09:13:21.478Z</time>
      </trkpt>
      <trkpt lat="44.56007" lon="0.88602">
        <ele>120.5</ele>
        <time>2021-10-01T09:13:17.633Z</time>
      </trkpt>
      <trkpt lat="44.56011" lon="0.88575">
        <ele>119.8</ele>
        <time>2021-10-01T09:13:13.791Z</time>
      </trkpt>
      <trkpt lat="44.56014" lon="0.88573">
        <ele>119.2</ele>
        <time>2021-10-01T09:13:06.116Z</time>
      </trkpt>
      <trkpt lat="44.56021" lon="0.88569">
        <ele>118.2</ele>
        <time>2021-10-01T09:13:02.279Z</time>
      </trkpt>
      <trkpt lat="44.56032" lon="0.88564">
        <ele>117.7</ele>
        <time>2021-10-01T09:12:58.444Z</time>
      </trkpt>
      <trkpt lat="44.56043" lon="0.8856">
        <ele>118.9</ele>
        <time>2021-10-01T09:12:54.611Z</time>
      </trkpt>
      <trkpt lat="44.56054" lon="0.88558">
        <ele>120.4</ele>
        <time>2021-10-01T09:12:50.780Z</time>
      </trkpt>
      <trkpt lat="44.56063" lon="0.88563">
        <ele>123.1</ele>
        <time>2021-10-01T09:12:46.951Z</time>
      </trkpt>
      <trkpt lat="44.56076" lon="0.88576">
        <ele>125.5</ele>
        <time>2021-10-01T09:12:43.124Z</time>
      </trkpt>
      <trkpt lat="44.56124" lon="0.8865">
        <ele>130.6</ele>
        <time>2021-10-01T09:12:39.301Z</time>
      </trkpt>
      <trkpt lat="44.56133" lon="0.88655">
        <ele>131.5</ele>
        <time>2021-10-01T09:12:35.492Z</time>
      </trkpt>
      <trkpt lat="44.56143" lon="0.88651">
        <ele>134.4</ele>
        <time>2021-10-01T09:12:31.685Z</time>
      </trkpt>
      <trkpt lat="44.56182" lon="0.88611">
        <ele>137.8</ele>
        <time>2021-10-01T09:12:27.880Z</time>
      </trkpt>
      <trkpt lat="44.56226" lon="0.88565">
        <ele>142.4</ele>
        <time>2021-10-01T09:12:24.085Z</time>
      </trkpt>
      <trkpt lat="44.56282" lon="0.8851">
        <ele>151.1</ele>
        <time>2021-10-01T09:12:20.300Z</time>
      </trkpt>
      <trkpt lat="44.56291" lon="0.88494">
        <ele>154.4</ele>
        <time>2021-10-01T09:12:16.529Z</time>
      </trkpt>
      <trkpt lat="44.56304" lon="0.88484">
        <ele>155.9</ele>
        <time>2021-10-01T09:12:12.761Z</time>
      </trkpt>
      <trkpt lat="44.56316" lon="0.88483">
        <ele>157.5</ele>
        <time>2021-10-01T09:12:08.996Z</time>
      </trkpt>
      <trkpt lat="44.5634" lon="0.88486">
        <ele>160.4</ele>
        <time>2021-10-01T09:12:05.234Z</time>
      </trkpt>
      <trkpt lat="44.56445" lon="0.88451">
        <ele>170.3</ele>
        <time>2021-10-01T09:12:01.476Z</time>
      </trkpt>
      <trkpt lat="44.56491" lon="0.88442">
        <ele>174.7</ele>
        <time>2021-10-01T09:11:57.740Z</time>
      </trkpt>
      <trkpt lat="44.56505" lon="0.88436">
        <ele>175.8</ele>
        <time>2021-10-01T09:11:54.013Z</time>
      </trkpt>
      <trkpt lat="44.56521" lon="0.88428">
        <ele>176</ele>
        <time>2021-10-01T09:11:50.289Z</time>
      </trkpt>
      <trkpt lat="44.5655" lon="0.88395">
        <ele>179.9</ele>
        <time>2021-10-01T09:11:46.569Z</time>
      </trkpt>
      <trkpt lat="44.56595" lon="0.883">
        <ele>184.4</ele>
        <time>2021-10-01T09:11:42.856Z</time>
      </trkpt>
      <trkpt lat="44.56612" lon="0.88269">
        <ele>188.5</ele>
        <time>2021-10-01T09:11:35.468Z</time>
      </trkpt>
      <trkpt lat="44.56617" lon="0.88258">
        <ele>190</ele>
        <time>2021-10-01T09:11:28.088Z</time>
      </trkpt>
      <trkpt lat="44.56646" lon="0.88205">
        <ele>193.4</ele>
        <time>2021-10-01T09:11:24.399Z</time>
      </trkpt>
      <trkpt lat="44.56669" lon="0.88146">
        <ele>196</ele>
        <time>2021-10-01T09:11:20.719Z</time>
      </trkpt>
      <trkpt lat="44.56688" lon="0.88088">
        <ele>197.3</ele>
        <time>2021-10-01T09:11:17.049Z</time>
      </trkpt>
      <trkpt lat="44.56699" lon="0.88044">
        <ele>195.1</ele>
        <time>2021-10-01T09:11:13.388Z</time>
      </trkpt>
      <trkpt lat="44.56712" lon="0.87975">
        <ele>197</ele>
        <time>2021-10-01T09:11:09.734Z</time>
      </trkpt>
      <trkpt lat="44.56732" lon="0.87839">
        <ele>196.7</ele>
        <time>2021-10-01T09:11:06.090Z</time>
      </trkpt>
      <trkpt lat="44.56764" lon="0.87651">
        <ele>191.9</ele>
        <time>2021-10-01T09:11:02.466Z</time>
      </trkpt>
      <trkpt lat="44.56776" lon="0.87614">
        <ele>191</ele>
        <time>2021-10-01T09:10:58.869Z</time>
      </trkpt>
      <trkpt lat="44.56805" lon="0.87539">
        <ele>191</ele>
        <time>2021-10-01T09:10:55.278Z</time>
      </trkpt>
      <trkpt lat="44.56846" lon="0.87438">
        <ele>196.9</ele>
        <time>2021-10-01T09:10:51.699Z</time>
      </trkpt>
      <trkpt lat="44.56877" lon="0.8737">
        <ele>201.8</ele>
        <time>2021-10-01T09:10:48.137Z</time>
      </trkpt>
      <trkpt lat="44.56886" lon="0.87354">
        <ele>202.5</ele>
        <time>2021-10-01T09:10:44.586Z</time>
      </trkpt>
      <trkpt lat="44.56886" lon="0.87355">
        <ele>202.4</ele>
        <time>2021-10-01T09:10:41.038Z</time>
      </trkpt>
      <trkpt lat="44.569" lon="0.87332">
        <ele>204.8</ele>
        <time>2021-10-01T09:10:37.490Z</time>
      </trkpt>
      <trkpt lat="44.56922" lon="0.87299">
        <ele>206</ele>
        <time>2021-10-01T09:10:33.947Z</time>
      </trkpt>
      <trkpt lat="44.56945" lon="0.87277">
        <ele>208</ele>
        <time>2021-10-01T09:10:30.410Z</time>
      </trkpt>
      <trkpt lat="44.56971" lon="0.87262">
        <ele>209.4</ele>
        <time>2021-10-01T09:10:26.879Z</time>
      </trkpt>
      <trkpt lat="44.5702" lon="0.87243">
        <ele>210</ele>
        <time>2021-10-01T09:10:23.353Z</time>
      </trkpt>
      <trkpt lat="44.57094" lon="0.87195">
        <ele>208.4</ele>
        <time>2021-10-01T09:10:19.838Z</time>
      </trkpt>
      <trkpt lat="44.57114" lon="0.87172">
        <ele>208.2</ele>
        <time>2021-10-01T09:10:16.339Z</time>
      </trkpt>
      <trkpt lat="44.57125" lon="0.87149">
        <ele>207</ele>
        <time>2021-10-01T09:10:12.845Z</time>
      </trkpt>
      <trkpt lat="44.57169" lon="0.86994">
        <ele>198.8</ele>
        <time>2021-10-01T09:10:09.355Z</time>
      </trkpt>
      <trkpt lat="44.57203" lon="0.86914">
        <ele>197.3</ele>
        <time>2021-10-01T09:10:05.889Z</time>
      </trkpt>
      <trkpt lat="44.5722" lon="0.86889">
        <ele>197</ele>
        <time>2021-10-01T09:10:02.436Z</time>
      </trkpt>
      <trkpt lat="44.57214" lon="0.86876">
        <ele>197</ele>
        <time>2021-10-01T09:09:58.988Z</time>
      </trkpt>
      <trkpt lat="44.57252" lon="0.86752">
        <ele>197.8</ele>
        <time>2021-10-01T09:09:55.542Z</time>
      </trkpt>
      <trkpt lat="44.57305" lon="0.86634">
        <ele>199</ele>
        <time>2021-10-01T09:09:52.115Z</time>
      </trkpt>
      <trkpt lat="44.57345" lon="0.86526">
        <ele>198.2</ele>
        <time>2021-10-01T09:09:48.708Z</time>
      </trkpt>
      <trkpt lat="44.57355" lon="0.86488">
        <ele>198.9</ele>
        <time>2021-10-01T09:09:45.319Z</time>
      </trkpt>
      <trkpt lat="44.57359" lon="0.86442">
        <ele>199.8</ele>
        <time>2021-10-01T09:09:41.935Z</time>
      </trkpt>
      <trkpt lat="44.57354" lon="0.86422">
        <ele>199.5</ele>
        <time>2021-10-01T09:09:38.558Z</time>
      </trkpt>
      <trkpt lat="44.5734" lon="0.86384">
        <ele>198.4</ele>
        <time>2021-10-01T09:09:35.184Z</time>
      </trkpt>
      <trkpt lat="44.57334" lon="0.86345">
        <ele>198</ele>
        <time>2021-10-01T09:09:31.816Z</time>
      </trkpt>
      <trkpt lat="44.57331" lon="0.86323">
        <ele>197.9</ele>
        <time>2021-10-01T09:09:25.095Z</time>
      </trkpt>
      <trkpt lat="44.57314" lon="0.86136">
        <ele>194.5</ele>
        <time>2021-10-01T09:09:21.736Z</time>
      </trkpt>
      <trkpt lat="44.57313" lon="0.86121">
        <ele>193.9</ele>
        <time>2021-10-01T09:09:18.404Z</time>
      </trkpt>
      <trkpt lat="44.5732" lon="0.86061">
        <ele>191.8</ele>
        <time>2021-10-01T09:09:15.074Z</time>
      </trkpt>
      <trkpt lat="44.57328" lon="0.86034">
        <ele>191</ele>
        <time>2021-10-01T09:09:08.436Z</time>
      </trkpt>
      <trkpt lat="44.57332" lon="0.86021">
        <ele>190.5</ele>
        <time>2021-10-01T09:09:05.119Z</time>
      </trkpt>
      <trkpt lat="44.57342" lon="0.86004">
        <ele>189.9</ele>
        <time>2021-10-01T09:09:01.804Z</time>
      </trkpt>
      <trkpt lat="44.57357" lon="0.86009">
        <ele>191.1</ele>
        <time>2021-10-01T09:08:58.492Z</time>
      </trkpt>
      <trkpt lat="44.57379" lon="0.86025">
        <ele>191.3</ele>
        <time>2021-10-01T09:08:55.183Z</time>
      </trkpt>
      <trkpt lat="44.57422" lon="0.86057">
        <ele>188.8</ele>
        <time>2021-10-01T09:08:51.879Z</time>
      </trkpt>
      <trkpt lat="44.57449" lon="0.86069">
        <ele>188.8</ele>
        <time>2021-10-01T09:08:48.585Z</time>
      </trkpt>
      <trkpt lat="44.57482" lon="0.86069">
        <ele>187.4</ele>
        <time>2021-10-01T09:08:45.297Z</time>
      </trkpt>
      <trkpt lat="44.57538" lon="0.86062">
        <ele>185.5</ele>
        <time>2021-10-01T09:08:42.015Z</time>
      </trkpt>
      <trkpt lat="44.57576" lon="0.86053">
        <ele>185</ele>
        <time>2021-10-01T09:08:38.745Z</time>
      </trkpt>
      <trkpt lat="44.57704" lon="0.85983">
        <ele>183.6</ele>
        <time>2021-10-01T09:08:35.482Z</time>
      </trkpt>
      <trkpt lat="44.57843" lon="0.8592">
        <ele>178.8</ele>
        <time>2021-10-01T09:08:29.041Z</time>
      </trkpt>
      <trkpt lat="44.57865" lon="0.85909">
        <ele>178.1</ele>
        <time>2021-10-01T09:08:25.835Z</time>
      </trkpt>
      <trkpt lat="44.58104" lon="0.85796">
        <ele>181.1</ele>
        <time>2021-10-01T09:08:22.634Z</time>
      </trkpt>
      <trkpt lat="44.58165" lon="0.85758">
        <ele>179.5</ele>
        <time>2021-10-01T09:08:19.483Z</time>
      </trkpt>
      <trkpt lat="44.58187" lon="0.85721">
        <ele>179.9</ele>
        <time>2021-10-01T09:08:16.346Z</time>
      </trkpt>
      <trkpt lat="44.58195" lon="0.85705">
        <ele>180.4</ele>
        <time>2021-10-01T09:08:13.215Z</time>
      </trkpt>
      <trkpt lat="44.58225" lon="0.85645">
        <ele>182.4</ele>
        <time>2021-10-01T09:08:06.970Z</time>
      </trkpt>
      <trkpt lat="44.58243" lon="0.85609">
        <ele>181.6</ele>
        <time>2021-10-01T09:08:03.853Z</time>
      </trkpt>
      <trkpt lat="44.58441" lon="0.85539">
        <ele>183.2</ele>
        <time>2021-10-01T09:08:00.742Z</time>
      </trkpt>
      <trkpt lat="44.58487" lon="0.85494">
        <ele>182.5</ele>
        <time>2021-10-01T09:07:57.672Z</time>
      </trkpt>
      <trkpt lat="44.58515" lon="0.85474">
        <ele>181</ele>
        <time>2021-10-01T09:07:54.613Z</time>
      </trkpt>
      <trkpt lat="44.58553" lon="0.85471">
        <ele>179.1</ele>
        <time>2021-10-01T09:07:51.560Z</time>
      </trkpt>
      <trkpt lat="44.58594" lon="0.85478">
        <ele>178.6</ele>
        <time>2021-10-01T09:07:48.515Z</time>
      </trkpt>
      <trkpt lat="44.58829" lon="0.85535">
        <ele>175.5</ele>
        <time>2021-10-01T09:07:42.489Z</time>
      </trkpt>
      <trkpt lat="44.58824" lon="0.85493">
        <ele>177.3</ele>
        <time>2021-10-01T09:07:39.500Z</time>
      </trkpt>
      <trkpt lat="44.58824" lon="0.85458">
        <ele>178.5</ele>
        <time>2021-10-01T09:07:36.517Z</time>
      </trkpt>
      <trkpt lat="44.58829" lon="0.85429">
        <ele>178.5</ele>
        <time>2021-10-01T09:07:33.539Z</time>
      </trkpt>
      <trkpt lat="44.58838" lon="0.85406">
        <ele>177.6</ele>
        <time>2021-10-01T09:07:30.565Z</time>
      </trkpt>
      <trkpt lat="44.58829" lon="0.85394">
        <ele>177.3</ele>
        <time>2021-10-01T09:07:24.627Z</time>
      </trkpt>
      <trkpt lat="44.58823" lon="0.85384">
        <ele>177.4</ele>
        <time>2021-10-01T09:07:21.659Z</time>
      </trkpt>
      <trkpt lat="44.58811" lon="0.85352">
        <ele>177.4</ele>
        <time>2021-10-01T09:07:18.693Z</time>
      </trkpt>
      <trkpt lat="44.58794" lon="0.85236">
        <ele>176.6</ele>
        <time>2021-10-01T09:07:15.732Z</time>
      </trkpt>
      <trkpt lat="44.58781" lon="0.85175">
        <ele>174.4</ele>
        <time>2021-10-01T09:07:12.788Z</time>
      </trkpt>
      <trkpt lat="44.58741" lon="0.8502">
        <ele>168.4</ele>
        <time>2021-10-01T09:07:06.942Z</time>
      </trkpt>
      <trkpt lat="44.58748" lon="0.85011">
        <ele>168.9</ele>
        <time>2021-10-01T09:07:04.031Z</time>
      </trkpt>
      <trkpt lat="44.58747" lon="0.85008">
        <ele>168.8</ele>
        <time>2021-10-01T09:07:01.122Z</time>
      </trkpt>
      <trkpt lat="44.58742" lon="0.84929">
        <ele>167.9</ele>
        <time>2021-10-01T09:06:58.213Z</time>
      </trkpt>
      <trkpt lat="44.58729" lon="0.84817">
        <ele>166.4</ele>
        <time>2021-10-01T09:06:55.316Z</time>
      </trkpt>
      <trkpt lat="44.58723" lon="0.84789">
        <ele>167.5</ele>
        <time>2021-10-01T09:06:52.435Z</time>
      </trkpt>
      <trkpt lat="44.58718" lon="0.84733">
        <ele>166</ele>
        <time>2021-10-01T09:06:49.558Z</time>
      </trkpt>
      <trkpt lat="44.58715" lon="0.84667">
        <ele>163.5</ele>
        <time>2021-10-01T09:06:43.829Z</time>
      </trkpt>
      <trkpt lat="44.58715" lon="0.84666">
        <ele>163.5</ele>
        <time>2021-10-01T09:06:40.969Z</time>
      </trkpt>
      <trkpt lat="44.58708" lon="0.84615">
        <ele>160.9</ele>
        <time>2021-10-01T09:06:38.110Z</time>
      </trkpt>
      <trkpt lat="44.58703" lon="0.84597">
        <ele>159.8</ele>
        <time>2021-10-01T09:06:35.258Z</time>
      </trkpt>
      <trkpt lat="44.58677" lon="0.84534">
        <ele>158.5</ele>
        <time>2021-10-01T09:06:32.409Z</time>
      </trkpt>
      <trkpt lat="44.58676" lon="0.84517">
        <ele>158.3</ele>
        <time>2021-10-01T09:06:29.570Z</time>
      </trkpt>
      <trkpt lat="44.58678" lon="0.84502">
        <ele>158.2</ele>
        <time>2021-10-01T09:06:26.734Z</time>
      </trkpt>
      <trkpt lat="44.58692" lon="0.84472">
        <ele>156.2</ele>
        <time>2021-10-01T09:06:21.071Z</time>
      </trkpt>
      <trkpt lat="44.5873" lon="0.8439">
        <ele>153.7</ele>
        <time>2021-10-01T09:06:18.242Z</time>
      </trkpt>
      <trkpt lat="44.58756" lon="0.8434">
        <ele>152.8</ele>
        <time>2021-10-01T09:06:15.427Z</time>
      </trkpt>
      <trkpt lat="44.58773" lon="0.84314">
        <ele>152.2</ele>
        <time>2021-10-01T09:06:12.621Z</time>
      </trkpt>
      <trkpt lat="44.58831" lon="0.84239">
        <ele>152.4</ele>
        <time>2021-10-01T09:06:09.820Z</time>
      </trkpt>
      <trkpt lat="44.58846" lon="0.84222">
        <ele>152.6</ele>
        <time>2021-10-01T09:06:07.035Z</time>
      </trkpt>
      <trkpt lat="44.58858" lon="0.84215">
        <ele>152.4</ele>
        <time>2021-10-01T09:06:01.475Z</time>
      </trkpt>
      <trkpt lat="44.5887" lon="0.84206">
        <ele>152.3</ele>
        <time>2021-10-01T09:05:58.696Z</time>
      </trkpt>
      <trkpt lat="44.58884" lon="0.84193">
        <ele>152.2</ele>
        <time>2021-10-01T09:05:55.920Z</time>
      </trkpt>
      <trkpt lat="44.58894" lon="0.84175">
        <ele>152.4</ele>
        <time>2021-10-01T09:05:53.147Z</time>
      </trkpt>
      <trkpt lat="44.58903" lon="0.84154">
        <ele>152</ele>
        <time>2021-10-01T09:05:50.377Z</time>
      </trkpt>
      <trkpt lat="44.58912" lon="0.84131">
        <ele>151.6</ele>
        <time>2021-10-01T09:05:47.611Z</time>
      </trkpt>
      <trkpt lat="44.5892" lon="0.84118">
        <ele>151.6</ele>
        <time>2021-10-01T09:05:44.849Z</time>
      </trkpt>
      <trkpt lat="44.59009" lon="0.84063">
        <ele>154.1</ele>
        <time>2021-10-01T09:05:42.089Z</time>
      </trkpt>
      <trkpt lat="44.59024" lon="0.84052">
        <ele>155</ele>
        <time>2021-10-01T09:05:39.349Z</time>
      </trkpt>
      <trkpt lat="44.5906" lon="0.84019">
        <ele>155.2</ele>
        <time>2021-10-01T09:05:36.612Z</time>
      </trkpt>
      <trkpt lat="44.59075" lon="0.84008">
        <ele>155</ele>
        <time>2021-10-01T09:05:33.884Z</time>
      </trkpt>
      <trkpt lat="44.59118" lon="0.83984">
        <ele>154.8</ele>
        <time>2021-10-01T09:05:28.443Z</time>
      </trkpt>
      <trkpt lat="44.59142" lon="0.8394">
        <ele>153.9</ele>
        <time>2021-10-01T09:05:25.727Z</time>
      </trkpt>
      <trkpt lat="44.59175" lon="0.83872">
        <ele>151.3</ele>
        <time>2021-10-01T09:05:23.019Z</time>
      </trkpt>
      <trkpt lat="44.59179" lon="0.83858">
        <ele>150.9</ele>
        <time>2021-10-01T09:05:20.323Z</time>
      </trkpt>
      <trkpt lat="44.59191" lon="0.83809">
        <ele>149.9</ele>
        <time>2021-10-01T09:05:17.629Z</time>
      </trkpt>
      <trkpt lat="44.59194" lon="0.83785">
        <ele>150</ele>
        <time>2021-10-01T09:05:14.942Z</time>
      </trkpt>
      <trkpt lat="44.59194" lon="0.83709">
        <ele>149</ele>
        <time>2021-10-01T09:05:12.259Z</time>
      </trkpt>
      <trkpt lat="44.59196" lon="0.8369">
        <ele>148.9</ele>
        <time>2021-10-01T09:05:09.587Z</time>
      </trkpt>
      <trkpt lat="44.59208" lon="0.8366">
        <ele>148.1</ele>
        <time>2021-10-01T09:05:06.917Z</time>
      </trkpt>
      <trkpt lat="44.59247" lon="0.83583">
        <ele>145.9</ele>
        <time>2021-10-01T09:05:01.601Z</time>
      </trkpt>
      <trkpt lat="44.59254" lon="0.83569">
        <ele>145.9</ele>
        <time>2021-10-01T09:04:58.950Z</time>
      </trkpt>
      <trkpt lat="44.592" lon="0.83586">
        <ele>144.2</ele>
        <time>2021-10-01T09:04:56.301Z</time>
      </trkpt>
      <trkpt lat="44.59167" lon="0.83593">
        <ele>143</ele>
        <time>2021-10-01T09:04:53.663Z</time>
      </trkpt>
      <trkpt lat="44.59013" lon="0.83593">
        <ele>129.8</ele>
        <time>2021-10-01T09:04:51.032Z</time>
      </trkpt>
      <trkpt lat="44.58969" lon="0.83596">
        <ele>125.5</ele>
        <time>2021-10-01T09:04:45.841Z</time>
      </trkpt>
      <trkpt lat="44.58898" lon="0.83604">
        <ele>125.1</ele>
        <time>2021-10-01T09:04:43.250Z</time>
      </trkpt>
      <trkpt lat="44.58814" lon="0.83626">
        <ele>124.6</ele>
        <time>2021-10-01T09:04:40.673Z</time>
      </trkpt>
      <trkpt lat="44.58812" lon="0.83611">
        <ele>123</ele>
        <time>2021-10-01T09:04:35.555Z</time>
      </trkpt>
      <trkpt lat="44.58798" lon="0.83528">
        <ele>123.8</ele>
        <time>2021-10-01T09:04:32.997Z</time>
      </trkpt>
      <trkpt lat="44.58798" lon="0.83516">
        <ele>125.3</ele>
        <time>2021-10-01T09:04:30.451Z</time>
      </trkpt>
      <trkpt lat="44.58804" lon="0.83503">
        <ele>126.6</ele>
        <time>2021-10-01T09:04:27.907Z</time>
      </trkpt>
      <trkpt lat="44.58808" lon="0.8349">
        <ele>127.2</ele>
        <time>2021-10-01T09:04:25.365Z</time>
      </trkpt>
      <trkpt lat="44.58806" lon="0.83476">
        <ele>128.6</ele>
        <time>2021-10-01T09:04:22.825Z</time>
      </trkpt>
      <trkpt lat="44.58791" lon="0.83449">
        <ele>131.2</ele>
        <time>2021-10-01T09:04:20.287Z</time>
      </trkpt>
      <trkpt lat="44.58727" lon="0.83385">
        <ele>139.1</ele>
        <time>2021-10-01T09:04:17.754Z</time>
      </trkpt>
      <trkpt lat="44.58721" lon="0.83372">
        <ele>140.3</ele>
        <time>2021-10-01T09:04:15.237Z</time>
      </trkpt>
      <trkpt lat="44.5872" lon="0.83351">
        <ele>140.7</ele>
        <time>2021-10-01T09:04:12.722Z</time>
      </trkpt>
      <trkpt lat="44.58717" lon="0.83339">
        <ele>140.5</ele>
        <time>2021-10-01T09:04:10.210Z</time>
      </trkpt>
      <trkpt lat="44.58709" lon="0.83331">
        <ele>140.8</ele>
        <time>2021-10-01T09:04:07.700Z</time>
      </trkpt>
      <trkpt lat="44.58686" lon="0.83317">
        <ele>141.4</ele>
        <time>2021-10-01T09:04:05.192Z</time>
      </trkpt>
      <trkpt lat="44.58669" lon="0.833">
        <ele>141.6</ele>
        <time>2021-10-01T09:04:02.689Z</time>
      </trkpt>
      <trkpt lat="44.58676" lon="0.83275">
        <ele>140.4</ele>
        <time>2021-10-01T09:04:00.190Z</time>
      </trkpt>
      <trkpt lat="44.58704" lon="0.83233">
        <ele>139.8</ele>
        <time>2021-10-01T09:03:57.695Z</time>
      </trkpt>
      <trkpt lat="44.58851" lon="0.83101">
        <ele>132</ele>
        <time>2021-10-01T09:03:52.756Z</time>
      </trkpt>
      <trkpt lat="44.58877" lon="0.83078">
        <ele>130.7</ele>
        <time>2021-10-01T09:03:50.304Z</time>
      </trkpt>
      <trkpt lat="44.58892" lon="0.83022">
        <ele>127.2</ele>
        <time>2021-10-01T09:03:47.858Z</time>
      </trkpt>
      <trkpt lat="44.58906" lon="0.82996">
        <ele>123.6</ele>
        <time>2021-10-01T09:03:45.421Z</time>
      </trkpt>
      <trkpt lat="44.58948" lon="0.82948">
        <ele>121.7</ele>
        <time>2021-10-01T09:03:42.988Z</time>
      </trkpt>
      <trkpt lat="44.58978" lon="0.82936">
        <ele>121.4</ele>
        <time>2021-10-01T09:03:40.566Z</time>
      </trkpt>
      <trkpt lat="44.59" lon="0.82923">
        <ele>121.5</ele>
        <time>2021-10-01T09:03:38.150Z</time>
      </trkpt>
      <trkpt lat="44.5902" lon="0.82903">
        <ele>121.5</ele>
        <time>2021-10-01T09:03:35.739Z</time>
      </trkpt>
      <trkpt lat="44.59027" lon="0.82889">
        <ele>122</ele>
        <time>2021-10-01T09:03:33.333Z</time>
      </trkpt>
      <trkpt lat="44.59045" lon="0.82802">
        <ele>122.1</ele>
        <time>2021-10-01T09:03:30.929Z</time>
      </trkpt>
      <trkpt lat="44.59042" lon="0.82792">
        <ele>122.5</ele>
        <time>2021-10-01T09:03:28.538Z</time>
      </trkpt>
      <trkpt lat="44.59014" lon="0.82784">
        <ele>125</ele>
        <time>2021-10-01T09:03:26.149Z</time>
      </trkpt>
      <trkpt lat="44.5899" lon="0.82773">
        <ele>127.1</ele>
        <time>2021-10-01T09:03:23.766Z</time>
      </trkpt>
      <trkpt lat="44.58977" lon="0.82726">
        <ele>128.5</ele>
        <time>2021-10-01T09:03:21.388Z</time>
      </trkpt>
      <trkpt lat="44.58984" lon="0.8265">
        <ele>125.6</ele>
        <time>2021-10-01T09:03:19.017Z</time>
      </trkpt>
      <trkpt lat="44.58979" lon="0.82623">
        <ele>125.4</ele>
        <time>2021-10-01T09:03:16.657Z</time>
      </trkpt>
      <trkpt lat="44.58961" lon="0.82609">
        <ele>126.7</ele>
        <time>2021-10-01T09:03:14.301Z</time>
      </trkpt>
      <trkpt lat="44.58913" lon="0.82582">
        <ele>128.1</ele>
        <time>2021-10-01T09:03:11.949Z</time>
      </trkpt>
      <trkpt lat="44.58906" lon="0.82573">
        <ele>128.4</ele>
        <time>2021-10-01T09:03:09.607Z</time>
      </trkpt>
      <trkpt lat="44.5892" lon="0.8252">
        <ele>128.2</ele>
        <time>2021-10-01T09:03:04.935Z</time>
      </trkpt>
      <trkpt lat="44.58943" lon="0.82433">
        <ele>127.7</ele>
        <time>2021-10-01T09:03:02.603Z</time>
      </trkpt>
      <trkpt lat="44.58969" lon="0.82445">
        <ele>127.1</ele>
        <time>2021-10-01T09:02:57.971Z</time>
      </trkpt>
      <trkpt lat="44.58988" lon="0.82453">
        <ele>126.3</ele>
        <time>2021-10-01T09:02:55.658Z</time>
      </trkpt>
      <trkpt lat="44.59049" lon="0.82474">
        <ele>123.2</ele>
        <time>2021-10-01T09:02:53.349Z</time>
      </trkpt>
      <trkpt lat="44.59057" lon="0.82468">
        <ele>123</ele>
        <time>2021-10-01T09:02:51.052Z</time>
      </trkpt>
      <trkpt lat="44.59053" lon="0.82429">
        <ele>123.5</ele>
        <time>2021-10-01T09:02:48.757Z</time>
      </trkpt>
      <trkpt lat="44.59047" lon="0.82411">
        <ele>122.8</ele>
        <time>2021-10-01T09:02:46.468Z</time>
      </trkpt>
      <trkpt lat="44.59048" lon="0.82402">
        <ele>122</ele>
        <time>2021-10-01T09:02:44.182Z</time>
      </trkpt>
      <trkpt lat="44.59088" lon="0.82326">
        <ele>118.6</ele>
        <time>2021-10-01T09:02:41.897Z</time>
      </trkpt>
      <trkpt lat="44.5909" lon="0.82321">
        <ele>118.8</ele>
        <time>2021-10-01T09:02:37.355Z</time>
      </trkpt>
      <trkpt lat="44.59106" lon="0.82291">
        <ele>119.5</ele>
        <time>2021-10-01T09:02:35.084Z</time>
      </trkpt>
      <trkpt lat="44.59133" lon="0.82255">
        <ele>120.1</ele>
        <time>2021-10-01T09:02:32.819Z</time>
      </trkpt>
      <trkpt lat="44.59153" lon="0.82216">
        <ele>118.8</ele>
        <time>2021-10-01T09:02:30.561Z</time>
      </trkpt>
      <trkpt lat="44.59197" lon="0.82127">
        <ele>116.4</ele>
        <time>2021-10-01T09:02:28.310Z</time>
      </trkpt>
      <trkpt lat="44.59199" lon="0.82116">
        <ele>116.8</ele>
        <time>2021-10-01T09:02:26.074Z</time>
      </trkpt>
      <trkpt lat="44.59189" lon="0.82099">
        <ele>117.4</ele>
        <time>2021-10-01T09:02:23.840Z</time>
      </trkpt>
      <trkpt lat="44.5917" lon="0.8208">
        <ele>118</ele>
        <time>2021-10-01T09:02:21.609Z</time>
      </trkpt>
      <trkpt lat="44.59166" lon="0.82067">
        <ele>118</ele>
        <time>2021-10-01T09:02:19.383Z</time>
      </trkpt>
      <trkpt lat="44.59168" lon="0.82055">
        <ele>118</ele>
        <time>2021-10-01T09:02:17.159Z</time>
      </trkpt>
      <trkpt lat="44.59178" lon="0.82044">
        <ele>117.6</ele>
        <time>2021-10-01T09:02:14.937Z</time>
      </trkpt>
      <trkpt lat="44.59235" lon="0.82">
        <ele>115.5</ele>
        <time>2021-10-01T09:02:12.717Z</time>
      </trkpt>
      <trkpt lat="44.59299" lon="0.81974">
        <ele>114.8</ele>
        <time>2021-10-01T09:02:10.510Z</time>
      </trkpt>
      <trkpt lat="44.59327" lon="0.81961">
        <ele>114.6</ele>
        <time>2021-10-01T09:02:08.317Z</time>
      </trkpt>
      <trkpt lat="44.59376" lon="0.81909">
        <ele>108.9</ele>
        <time>2021-10-01T09:02:06.129Z</time>
      </trkpt>
      <trkpt lat="44.594" lon="0.81876">
        <ele>105.8</ele>
        <time>2021-10-01T09:02:03.954Z</time>
      </trkpt>
      <trkpt lat="44.59412" lon="0.81852">
        <ele>104.2</ele>
        <time>2021-10-01T09:02:01.785Z</time>
      </trkpt>
      <trkpt lat="44.59421" lon="0.81826">
        <ele>102.7</ele>
        <time>2021-10-01T09:01:59.621Z</time>
      </trkpt>
      <trkpt lat="44.59439" lon="0.81796">
        <ele>102</ele>
        <time>2021-10-01T09:01:57.461Z</time>
      </trkpt>
      <trkpt lat="44.59439" lon="0.81795">
        <ele>102</ele>
        <time>2021-10-01T09:01:53.151Z</time>
      </trkpt>
      <trkpt lat="44.59456" lon="0.81782">
        <ele>102.4</ele>
        <time>2021-10-01T09:01:50.996Z</time>
      </trkpt>
      <trkpt lat="44.59464" lon="0.81778">
        <ele>102.7</ele>
        <time>2021-10-01T09:01:48.845Z</time>
      </trkpt>
      <trkpt lat="44.59477" lon="0.81776">
        <ele>103</ele>
        <time>2021-10-01T09:01:46.696Z</time>
      </trkpt>
      <trkpt lat="44.59489" lon="0.81756">
        <ele>102.5</ele>
        <time>2021-10-01T09:01:44.550Z</time>
      </trkpt>
      <trkpt lat="44.59502" lon="0.81738">
        <ele>102.4</ele>
        <time>2021-10-01T09:01:42.407Z</time>
      </trkpt>
      <trkpt lat="44.59513" lon="0.81712">
        <ele>103</ele>
        <time>2021-10-01T09:01:40.268Z</time>
      </trkpt>
      <trkpt lat="44.59515" lon="0.81663">
        <ele>103.6</ele>
        <time>2021-10-01T09:01:38.133Z</time>
      </trkpt>
      <trkpt lat="44.59517" lon="0.8165">
        <ele>103.8</ele>
        <time>2021-10-01T09:01:36.005Z</time>
        <extensions>
          <visugpx:TrkExtension xmlns:visugpx="https://www.visugpx.com/editgpx/">
            <visugpx:node>7</visugpx:node>
            </visugpx:TrkExtension>
        </extensions>
      </trkpt>
    </trkseg>
  </trk>
</gpx>